<?xml version='1.0' encoding='UTF-8'?><gpx version="1.1" creator="JPX - https://github.com/jenetics/jpx" xmlns="http://www.topografix.com/GPX/1/1"><trk><trkseg><trkpt lat="42.5264591" lon="12.5155265"><ele>93.00000000000001</ele><time>2026-03-29T09:41:55.984Z</time></trkpt><trkpt lat="42.5264826" lon="12.5154471"><ele>93.0</ele><time>2026-03-29T09:42:01.984Z</time></trkpt><trkpt lat="42.5264961" lon="12.5153588"><ele>93.0</ele><time>2026-03-29T09:42:06.983Z</time></trkpt><trkpt lat="42.5264605" lon="12.5152775"><ele>93.0</ele><time>2026-03-29T09:42:13.985Z</time></trkpt><trkpt lat="42.5264311" lon="12.5151969"><ele>93.0</ele><time>2026-03-29T09:42:18.985Z</time></trkpt><trkpt lat="42.5263972" lon="12.5151113"><ele>93.00000000000001</ele><time>2026-03-29T09:42:26.986Z</time></trkpt><trkpt lat="42.5263629" lon="12.5150278"><ele>93.0</ele><time>2026-03-29T09:42:32.986Z</time></trkpt><trkpt lat="42.5263344" lon="12.5149429"><ele>93.14285714285715</ele><time>2026-03-29T09:42:39.982Z</time></trkpt><trkpt lat="42.5263034" lon="12.5148591"><ele>93.28571428571429</ele><time>2026-03-29T09:42:45.985Z</time></trkpt><trkpt lat="42.5262719" lon="12.514784"><ele>93.42857142857143</ele><time>2026-03-29T09:42:50.987Z</time></trkpt><trkpt lat="42.5262387" lon="12.5147072"><ele>93.57142857142858</ele><time>2026-03-29T09:42:56.985Z</time></trkpt><trkpt lat="42.5261975" lon="12.5146257"><ele>93.71428571428571</ele><time>2026-03-29T09:43:02.985Z</time></trkpt><trkpt lat="42.5261749" lon="12.5145362"><ele>93.85714285714286</ele><time>2026-03-29T09:43:08.983Z</time></trkpt><trkpt lat="42.5261416" lon="12.5144479"><ele>94.0</ele><time>2026-03-29T09:43:15.986Z</time></trkpt><trkpt lat="42.5260996" lon="12.5143746"><ele>94.28571428571428</ele><time>2026-03-29T09:43:21.985Z</time></trkpt><trkpt lat="42.5260668" lon="12.5142873"><ele>94.57142857142857</ele><time>2026-03-29T09:43:27.986Z</time></trkpt><trkpt lat="42.5260148" lon="12.5142152"><ele>94.85714285714286</ele><time>2026-03-29T09:43:34.985Z</time></trkpt><trkpt lat="42.5259817" lon="12.5141397"><ele>95.14285714285714</ele><time>2026-03-29T09:43:39.985Z</time></trkpt><trkpt lat="42.5259351" lon="12.5140695"><ele>95.42857142857143</ele><time>2026-03-29T09:43:45.986Z</time></trkpt><trkpt lat="42.5259252" lon="12.5139833"><ele>95.71428571428571</ele><time>2026-03-29T09:43:51.986Z</time></trkpt><trkpt lat="42.5259286" lon="12.5138934"><ele>96.0</ele><time>2026-03-29T09:43:56.985Z</time></trkpt><trkpt lat="42.5259076" lon="12.5138079"><ele>96.85714285714285</ele><time>2026-03-29T09:44:03.986Z</time></trkpt><trkpt lat="42.5258872" lon="12.5137224"><ele>97.71428571428571</ele><time>2026-03-29T09:44:10.985Z</time></trkpt><trkpt lat="42.5258621" lon="12.5136372"><ele>98.57142857142857</ele><time>2026-03-29T09:44:15.984Z</time></trkpt><trkpt lat="42.5258382" lon="12.5135485"><ele>99.42857142857142</ele><time>2026-03-29T09:44:21.984Z</time></trkpt><trkpt lat="42.5258089" lon="12.5134592"><ele>100.28571428571429</ele><time>2026-03-29T09:44:27.984Z</time></trkpt><trkpt lat="42.5257651" lon="12.5133778"><ele>101.14285714285714</ele><time>2026-03-29T09:44:34.986Z</time></trkpt><trkpt lat="42.5257322" lon="12.5132928"><ele>102.0</ele><time>2026-03-29T09:44:40.985Z</time></trkpt><trkpt lat="42.5256813" lon="12.513234"><ele>102.0</ele><time>2026-03-29T09:44:46.985Z</time></trkpt><trkpt lat="42.5256373" lon="12.5131581"><ele>102.0</ele><time>2026-03-29T09:44:54.986Z</time></trkpt><trkpt lat="42.5256151" lon="12.5130669"><ele>102.0</ele><time>2026-03-29T09:45:00.984Z</time></trkpt><trkpt lat="42.5255883" lon="12.5129743"><ele>102.0</ele><time>2026-03-29T09:45:06.984Z</time></trkpt><trkpt lat="42.525562" lon="12.5128903"><ele>102.0</ele><time>2026-03-29T09:45:11.986Z</time></trkpt><trkpt lat="42.5255276" lon="12.5128165"><ele>102.0</ele><time>2026-03-29T09:45:17.984Z</time></trkpt><trkpt lat="42.525493" lon="12.5127371"><ele>102.0</ele><time>2026-03-29T09:45:24.982Z</time></trkpt><trkpt lat="42.5254733" lon="12.5126517"><ele>101.57142857142857</ele><time>2026-03-29T09:45:30.985Z</time></trkpt><trkpt lat="42.5254485" lon="12.5125628"><ele>101.14285714285714</ele><time>2026-03-29T09:45:36.985Z</time></trkpt><trkpt lat="42.525425" lon="12.5124828"><ele>100.71428571428572</ele><time>2026-03-29T09:45:43.986Z</time></trkpt><trkpt lat="42.5253903" lon="12.5124033"><ele>100.28571428571428</ele><time>2026-03-29T09:45:49.985Z</time></trkpt><trkpt lat="42.5253569" lon="12.5123193"><ele>99.85714285714285</ele><time>2026-03-29T09:45:55.986Z</time></trkpt><trkpt lat="42.5253388" lon="12.512229"><ele>99.42857142857143</ele><time>2026-03-29T09:46:01.984Z</time></trkpt><trkpt lat="42.5253026" lon="12.5121483"><ele>99.0</ele><time>2026-03-29T09:46:09.986Z</time></trkpt><trkpt lat="42.5252671" lon="12.5120672"><ele>99.0</ele><time>2026-03-29T09:46:14.986Z</time></trkpt><trkpt lat="42.5252391" lon="12.5119869"><ele>99.0</ele><time>2026-03-29T09:46:20.983Z</time></trkpt><trkpt lat="42.5252147" lon="12.5118947"><ele>99.0</ele><time>2026-03-29T09:46:27.985Z</time></trkpt><trkpt lat="42.525179" lon="12.5118065"><ele>99.0</ele><time>2026-03-29T09:46:33.985Z</time></trkpt><trkpt lat="42.5251321" lon="12.5117463"><ele>99.0</ele><time>2026-03-29T09:46:38.985Z</time></trkpt><trkpt lat="42.525091" lon="12.5116697"><ele>99.0</ele><time>2026-03-29T09:46:45.985Z</time></trkpt><trkpt lat="42.5250543" lon="12.5115872"><ele>99.0</ele><time>2026-03-29T09:46:52.984Z</time></trkpt><trkpt lat="42.5250002" lon="12.511528"><ele>99.0</ele><time>2026-03-29T09:46:58.982Z</time></trkpt><trkpt lat="42.5249593" lon="12.511441"><ele>99.0</ele><time>2026-03-29T09:47:04.985Z</time></trkpt><trkpt lat="42.5249297" lon="12.5113653"><ele>99.0</ele><time>2026-03-29T09:47:10.985Z</time></trkpt><trkpt lat="42.5248815" lon="12.5113102"><ele>99.0</ele><time>2026-03-29T09:47:16.982Z</time></trkpt><trkpt lat="42.5248272" lon="12.5112485"><ele>99.0</ele><time>2026-03-29T09:47:21.982Z</time></trkpt><trkpt lat="42.5247922" lon="12.5111738"><ele>99.0</ele><time>2026-03-29T09:47:27.986Z</time></trkpt><trkpt lat="42.5247423" lon="12.5111113"><ele>99.0</ele><time>2026-03-29T09:47:34.985Z</time></trkpt><trkpt lat="42.5246881" lon="12.5110501"><ele>99.57142857142857</ele><time>2026-03-29T09:47:41.986Z</time></trkpt><trkpt lat="42.5246379" lon="12.5109762"><ele>100.14285714285714</ele><time>2026-03-29T09:47:47.986Z</time></trkpt><trkpt lat="42.5245832" lon="12.5109234"><ele>100.71428571428571</ele><time>2026-03-29T09:47:53.985Z</time></trkpt><trkpt lat="42.5245247" lon="12.5108698"><ele>101.28571428571428</ele><time>2026-03-29T09:47:59.986Z</time></trkpt><trkpt lat="42.5244712" lon="12.5107996"><ele>101.85714285714286</ele><time>2026-03-29T09:48:05.986Z</time></trkpt><trkpt lat="42.5244265" lon="12.5107331"><ele>102.42857142857142</ele><time>2026-03-29T09:48:10.985Z</time></trkpt><trkpt lat="42.5243762" lon="12.5106692"><ele>103.0</ele><time>2026-03-29T09:48:18.986Z</time></trkpt><trkpt lat="42.5243113" lon="12.5106232"><ele>104.28571428571428</ele><time>2026-03-29T09:48:24.982Z</time></trkpt><trkpt lat="42.5242571" lon="12.5105634"><ele>105.57142857142857</ele><time>2026-03-29T09:48:31.987Z</time></trkpt><trkpt lat="42.5242119" lon="12.5104994"><ele>106.85714285714286</ele><time>2026-03-29T09:48:36.983Z</time></trkpt><trkpt lat="42.5241597" lon="12.5104315"><ele>108.14285714285714</ele><time>2026-03-29T09:48:42.986Z</time></trkpt><trkpt lat="42.5240997" lon="12.5103935"><ele>109.42857142857143</ele><time>2026-03-29T09:48:48.985Z</time></trkpt><trkpt lat="42.5240535" lon="12.5103206"><ele>110.71428571428571</ele><time>2026-03-29T09:48:54.985Z</time></trkpt><trkpt lat="42.5239964" lon="12.5102668"><ele>112.0</ele><time>2026-03-29T09:49:01.987Z</time></trkpt><trkpt lat="42.5239417" lon="12.5102149"><ele>112.0</ele><time>2026-03-29T09:49:07.987Z</time></trkpt><trkpt lat="42.5238796" lon="12.5101941"><ele>112.0</ele><time>2026-03-29T09:49:12.985Z</time></trkpt><trkpt lat="42.5238207" lon="12.5101504"><ele>112.0</ele><time>2026-03-29T09:49:18.984Z</time></trkpt><trkpt lat="42.523763" lon="12.5100955"><ele>112.0</ele><time>2026-03-29T09:49:25.986Z</time></trkpt><trkpt lat="42.5237069" lon="12.5100525"><ele>112.0</ele><time>2026-03-29T09:49:30.985Z</time></trkpt><trkpt lat="42.523644" lon="12.5100397"><ele>112.0</ele><time>2026-03-29T09:49:36.984Z</time></trkpt><trkpt lat="42.5235804" lon="12.5100205"><ele>112.0</ele><time>2026-03-29T09:49:42.986Z</time></trkpt><trkpt lat="42.5235179" lon="12.5100016"><ele>110.42857142857143</ele><time>2026-03-29T09:49:47.984Z</time></trkpt><trkpt lat="42.5234532" lon="12.509982"><ele>108.85714285714286</ele><time>2026-03-29T09:49:54.983Z</time></trkpt><trkpt lat="42.5233894" lon="12.5099707"><ele>107.28571428571428</ele><time>2026-03-29T09:49:59.985Z</time></trkpt><trkpt lat="42.5233301" lon="12.50993"><ele>105.71428571428572</ele><time>2026-03-29T09:50:04.983Z</time></trkpt><trkpt lat="42.5232559" lon="12.5099329"><ele>104.14285714285714</ele><time>2026-03-29T09:50:12.984Z</time></trkpt><trkpt lat="42.5231973" lon="12.509901"><ele>102.57142857142857</ele><time>2026-03-29T09:50:18.986Z</time></trkpt><trkpt lat="42.523135" lon="12.5098836"><ele>101.0</ele><time>2026-03-29T09:50:24.982Z</time></trkpt><trkpt lat="42.5230751" lon="12.5099114"><ele>101.0</ele><time>2026-03-29T09:50:29.986Z</time></trkpt><trkpt lat="42.5230094" lon="12.5099009"><ele>101.0</ele><time>2026-03-29T09:50:34.984Z</time></trkpt><trkpt lat="42.5229529" lon="12.5098618"><ele>101.0</ele><time>2026-03-29T09:50:39.984Z</time></trkpt><trkpt lat="42.5228778" lon="12.5098693"><ele>101.0</ele><time>2026-03-29T09:50:47.985Z</time></trkpt><trkpt lat="42.5228148" lon="12.5098665"><ele>101.0</ele><time>2026-03-29T09:50:52.982Z</time></trkpt><trkpt lat="42.5227494" lon="12.5098769"><ele>101.0</ele><time>2026-03-29T09:50:58.986Z</time></trkpt><trkpt lat="42.5226764" lon="12.5098992"><ele>101.0</ele><time>2026-03-29T09:51:04.985Z</time></trkpt><trkpt lat="42.522613" lon="12.5099198"><ele>103.0</ele><time>2026-03-29T09:51:10.982Z</time></trkpt><trkpt lat="42.522551" lon="12.5099428"><ele>105.0</ele><time>2026-03-29T09:51:16.985Z</time></trkpt><trkpt lat="42.5224903" lon="12.5099675"><ele>107.0</ele><time>2026-03-29T09:51:23.985Z</time></trkpt><trkpt lat="42.5224246" lon="12.5099592"><ele>109.0</ele><time>2026-03-29T09:51:29.985Z</time></trkpt><trkpt lat="42.5209719" lon="12.5103917"><ele>107.16666666666667</ele><time>2026-03-29T09:53:55.985Z</time></trkpt><trkpt lat="42.5208809" lon="12.510429"><ele>105.33333333333334</ele><time>2026-03-29T09:53:58.983Z</time></trkpt><trkpt lat="42.5207962" lon="12.5104607"><ele>103.5</ele><time>2026-03-29T09:54:00.983Z</time></trkpt><trkpt lat="42.5207434" lon="12.5105086"><ele>101.66666666666666</ele><time>2026-03-29T09:54:03.982Z</time></trkpt><trkpt lat="42.5206888" lon="12.5105596"><ele>99.83333333333333</ele><time>2026-03-29T09:54:09.985Z</time></trkpt><trkpt lat="42.5206232" lon="12.5106062"><ele>98.0</ele><time>2026-03-29T09:54:16.981Z</time></trkpt><trkpt lat="42.5205701" lon="12.5106552"><ele>98.0</ele><time>2026-03-29T09:54:22.983Z</time></trkpt><trkpt lat="42.5205058" lon="12.510662"><ele>98.0</ele><time>2026-03-29T09:54:28.983Z</time></trkpt><trkpt lat="42.5204418" lon="12.5106784"><ele>98.0</ele><time>2026-03-29T09:54:35.983Z</time></trkpt><trkpt lat="42.520381" lon="12.510706"><ele>98.0</ele><time>2026-03-29T09:54:40.984Z</time></trkpt><trkpt lat="42.5203215" lon="12.510738"><ele>98.0</ele><time>2026-03-29T09:54:45.983Z</time></trkpt><trkpt lat="42.5202601" lon="12.5107751"><ele>98.0</ele><time>2026-03-29T09:54:50.985Z</time></trkpt><trkpt lat="42.5201979" lon="12.510801"><ele>98.0</ele><time>2026-03-29T09:54:56.986Z</time></trkpt><trkpt lat="42.5201342" lon="12.5108002"><ele>98.85714285714286</ele><time>2026-03-29T09:55:03.984Z</time></trkpt><trkpt lat="42.5200642" lon="12.510826"><ele>99.71428571428572</ele><time>2026-03-29T09:55:09.986Z</time></trkpt><trkpt lat="42.5199951" lon="12.5108455"><ele>100.57142857142857</ele><time>2026-03-29T09:55:16.985Z</time></trkpt><trkpt lat="42.5199331" lon="12.5108751"><ele>101.42857142857143</ele><time>2026-03-29T09:55:22.982Z</time></trkpt><trkpt lat="42.5198663" lon="12.5109046"><ele>102.28571428571429</ele><time>2026-03-29T09:55:28.982Z</time></trkpt><trkpt lat="42.5197993" lon="12.5109187"><ele>103.14285714285714</ele><time>2026-03-29T09:55:35.986Z</time></trkpt><trkpt lat="42.5197326" lon="12.5109158"><ele>104.0</ele><time>2026-03-29T09:55:40.981Z</time></trkpt><trkpt lat="42.5196762" lon="12.5109566"><ele>104.0</ele><time>2026-03-29T09:55:45.981Z</time></trkpt><trkpt lat="42.5196078" lon="12.510946"><ele>104.0</ele><time>2026-03-29T09:55:53.981Z</time></trkpt><trkpt lat="42.519535" lon="12.5109573"><ele>104.0</ele><time>2026-03-29T09:56:00.981Z</time></trkpt><trkpt lat="42.519474" lon="12.5109839"><ele>104.0</ele><time>2026-03-29T09:56:06.981Z</time></trkpt><trkpt lat="42.5194019" lon="12.5110049"><ele>104.0</ele><time>2026-03-29T09:56:13.981Z</time></trkpt><trkpt lat="42.5193269" lon="12.5110044"><ele>104.0</ele><time>2026-03-29T09:56:20.984Z</time></trkpt><trkpt lat="42.5192543" lon="12.5110213"><ele>104.0</ele><time>2026-03-29T09:56:25.985Z</time></trkpt><trkpt lat="42.519177" lon="12.5110145"><ele>104.57142857142857</ele><time>2026-03-29T09:56:30.984Z</time></trkpt><trkpt lat="42.5191122" lon="12.5110465"><ele>105.14285714285715</ele><time>2026-03-29T09:56:37.983Z</time></trkpt><trkpt lat="42.5190416" lon="12.5110623"><ele>105.71428571428572</ele><time>2026-03-29T09:56:43.985Z</time></trkpt><trkpt lat="42.5189723" lon="12.5110557"><ele>106.28571428571428</ele><time>2026-03-29T09:56:49.985Z</time></trkpt><trkpt lat="42.5189077" lon="12.5110763"><ele>106.85714285714286</ele><time>2026-03-29T09:56:55.985Z</time></trkpt><trkpt lat="42.5188348" lon="12.5110889"><ele>107.42857142857143</ele><time>2026-03-29T09:57:01.982Z</time></trkpt><trkpt lat="42.5187667" lon="12.511105"><ele>108.0</ele><time>2026-03-29T09:57:08.985Z</time></trkpt><trkpt lat="42.5186957" lon="12.5111102"><ele>109.14285714285714</ele><time>2026-03-29T09:57:14.984Z</time></trkpt><trkpt lat="42.5186277" lon="12.5111434"><ele>110.28571428571428</ele><time>2026-03-29T09:57:19.986Z</time></trkpt><trkpt lat="42.5185679" lon="12.5111701"><ele>111.42857142857144</ele><time>2026-03-29T09:57:25.984Z</time></trkpt><trkpt lat="42.5184945" lon="12.5111854"><ele>112.57142857142858</ele><time>2026-03-29T09:57:32.985Z</time></trkpt><trkpt lat="42.5184239" lon="12.5112049"><ele>113.71428571428572</ele><time>2026-03-29T09:57:38.986Z</time></trkpt><trkpt lat="42.5183578" lon="12.5112115"><ele>114.85714285714288</ele><time>2026-03-29T09:57:44.984Z</time></trkpt><trkpt lat="42.5182903" lon="12.5112297"><ele>116.00000000000001</ele><time>2026-03-29T09:57:50.986Z</time></trkpt><trkpt lat="42.5182264" lon="12.5112672"><ele>114.00000000000001</ele><time>2026-03-29T09:57:56.985Z</time></trkpt><trkpt lat="42.5181573" lon="12.511278"><ele>112.0</ele><time>2026-03-29T09:58:02.984Z</time></trkpt><trkpt lat="42.5180941" lon="12.5112973"><ele>110.0</ele><time>2026-03-29T09:58:09.983Z</time></trkpt><trkpt lat="42.5180253" lon="12.5113418"><ele>108.0</ele><time>2026-03-29T09:58:16.986Z</time></trkpt><trkpt lat="42.5179555" lon="12.5113503"><ele>106.0</ele><time>2026-03-29T09:58:23.986Z</time></trkpt><trkpt lat="42.5178905" lon="12.5113849"><ele>104.0</ele><time>2026-03-29T09:58:28.982Z</time></trkpt><trkpt lat="42.5178342" lon="12.5114388"><ele>102.0</ele><time>2026-03-29T09:58:33.983Z</time></trkpt><trkpt lat="42.5177744" lon="12.5114758"><ele>102.0</ele><time>2026-03-29T09:58:39.982Z</time></trkpt><trkpt lat="42.5177089" lon="12.5114959"><ele>102.0</ele><time>2026-03-29T09:58:45.985Z</time></trkpt><trkpt lat="42.5176495" lon="12.5115387"><ele>102.0</ele><time>2026-03-29T09:58:52.985Z</time></trkpt><trkpt lat="42.5175901" lon="12.5115749"><ele>102.0</ele><time>2026-03-29T09:58:57.985Z</time></trkpt><trkpt lat="42.5175308" lon="12.5116248"><ele>102.0</ele><time>2026-03-29T09:59:04.983Z</time></trkpt><trkpt lat="42.5174673" lon="12.5116366"><ele>102.0</ele><time>2026-03-29T09:59:10.986Z</time></trkpt><trkpt lat="42.5174039" lon="12.5116408"><ele>102.0</ele><time>2026-03-29T09:59:15.984Z</time></trkpt><trkpt lat="42.5173427" lon="12.511681"><ele>102.0</ele><time>2026-03-29T09:59:21.985Z</time></trkpt><trkpt lat="42.5172768" lon="12.5116927"><ele>102.0</ele><time>2026-03-29T09:59:27.984Z</time></trkpt><trkpt lat="42.5172139" lon="12.5117409"><ele>102.0</ele><time>2026-03-29T09:59:35.985Z</time></trkpt><trkpt lat="42.5171448" lon="12.5117638"><ele>102.0</ele><time>2026-03-29T09:59:41.985Z</time></trkpt><trkpt lat="42.5170831" lon="12.5118035"><ele>102.0</ele><time>2026-03-29T09:59:48.984Z</time></trkpt><trkpt lat="42.5170239" lon="12.5118383"><ele>102.0</ele><time>2026-03-29T09:59:54.984Z</time></trkpt><trkpt lat="42.5169608" lon="12.5118672"><ele>102.0</ele><time>2026-03-29T10:00:01.985Z</time></trkpt><trkpt lat="42.5168938" lon="12.5119087"><ele>101.14285714285714</ele><time>2026-03-29T10:00:07.986Z</time></trkpt><trkpt lat="42.516831" lon="12.511951"><ele>100.28571428571429</ele><time>2026-03-29T10:00:13.986Z</time></trkpt><trkpt lat="42.5167644" lon="12.5119931"><ele>99.42857142857142</ele><time>2026-03-29T10:00:19.986Z</time></trkpt><trkpt lat="42.5167048" lon="12.51203"><ele>98.57142857142857</ele><time>2026-03-29T10:00:26.986Z</time></trkpt><trkpt lat="42.5166341" lon="12.5120477"><ele>97.71428571428571</ele><time>2026-03-29T10:00:33.985Z</time></trkpt><trkpt lat="42.5165751" lon="12.512103"><ele>96.85714285714285</ele><time>2026-03-29T10:00:39.984Z</time></trkpt><trkpt lat="42.5165098" lon="12.5121464"><ele>96.0</ele><time>2026-03-29T10:00:45.983Z</time></trkpt><trkpt lat="42.5164456" lon="12.5121965"><ele>95.99999999999999</ele><time>2026-03-29T10:00:51.982Z</time></trkpt><trkpt lat="42.5163793" lon="12.5122386"><ele>96.0</ele><time>2026-03-29T10:00:57.984Z</time></trkpt><trkpt lat="42.5163132" lon="12.5122468"><ele>96.0</ele><time>2026-03-29T10:01:03.983Z</time></trkpt><trkpt lat="42.5162455" lon="12.5122828"><ele>96.0</ele><time>2026-03-29T10:01:11.983Z</time></trkpt><trkpt lat="42.5161756" lon="12.5123119"><ele>96.0</ele><time>2026-03-29T10:01:18.985Z</time></trkpt><trkpt lat="42.5161073" lon="12.5123392"><ele>95.99999999999999</ele><time>2026-03-29T10:01:25.985Z</time></trkpt><trkpt lat="42.5160417" lon="12.5123626"><ele>96.0</ele><time>2026-03-29T10:01:31.985Z</time></trkpt><trkpt lat="42.5159794" lon="12.5123955"><ele>96.85714285714285</ele><time>2026-03-29T10:01:38.986Z</time></trkpt><trkpt lat="42.5159154" lon="12.5124314"><ele>97.71428571428571</ele><time>2026-03-29T10:01:44.984Z</time></trkpt><trkpt lat="42.5158526" lon="12.5124603"><ele>98.57142857142857</ele><time>2026-03-29T10:01:50.986Z</time></trkpt><trkpt lat="42.5157921" lon="12.512495"><ele>99.42857142857142</ele><time>2026-03-29T10:01:56.983Z</time></trkpt><trkpt lat="42.5157332" lon="12.5125297"><ele>100.28571428571429</ele><time>2026-03-29T10:02:01.982Z</time></trkpt><trkpt lat="42.5156723" lon="12.5125531"><ele>101.14285714285714</ele><time>2026-03-29T10:02:07.986Z</time></trkpt><trkpt lat="42.515612" lon="12.512585"><ele>102.0</ele><time>2026-03-29T10:02:14.986Z</time></trkpt><trkpt lat="42.5155503" lon="12.5126209"><ele>102.0</ele><time>2026-03-29T10:02:19.986Z</time></trkpt><trkpt lat="42.5154982" lon="12.5126689"><ele>102.0</ele><time>2026-03-29T10:02:24.982Z</time></trkpt><trkpt lat="42.5154306" lon="12.5127003"><ele>102.0</ele><time>2026-03-29T10:02:30.983Z</time></trkpt><trkpt lat="42.5153694" lon="12.5127287"><ele>102.0</ele><time>2026-03-29T10:02:36.984Z</time></trkpt><trkpt lat="42.5153091" lon="12.5127568"><ele>102.0</ele><time>2026-03-29T10:02:42.986Z</time></trkpt><trkpt lat="42.5152424" lon="12.5127878"><ele>102.0</ele><time>2026-03-29T10:02:48.986Z</time></trkpt><trkpt lat="42.5151744" lon="12.5128195"><ele>102.0</ele><time>2026-03-29T10:02:56.982Z</time></trkpt><trkpt lat="42.5151103" lon="12.5128492"><ele>101.14285714285714</ele><time>2026-03-29T10:03:01.985Z</time></trkpt><trkpt lat="42.5150485" lon="12.5128762"><ele>100.28571428571429</ele><time>2026-03-29T10:03:05.985Z</time></trkpt><trkpt lat="42.5149809" lon="12.5129136"><ele>99.42857142857142</ele><time>2026-03-29T10:03:10.985Z</time></trkpt><trkpt lat="42.5149188" lon="12.5129466"><ele>98.57142857142857</ele><time>2026-03-29T10:03:18.985Z</time></trkpt><trkpt lat="42.514852" lon="12.5129661"><ele>97.71428571428571</ele><time>2026-03-29T10:03:24.983Z</time></trkpt><trkpt lat="42.5147905" lon="12.5129874"><ele>96.85714285714285</ele><time>2026-03-29T10:03:30.985Z</time></trkpt><trkpt lat="42.514723" lon="12.5130046"><ele>96.0</ele><time>2026-03-29T10:03:36.983Z</time></trkpt><trkpt lat="42.5146581" lon="12.513022"><ele>95.99999999999999</ele><time>2026-03-29T10:03:42.986Z</time></trkpt><trkpt lat="42.5145933" lon="12.5130423"><ele>96.0</ele><time>2026-03-29T10:03:48.983Z</time></trkpt><trkpt lat="42.5145294" lon="12.513063"><ele>96.0</ele><time>2026-03-29T10:03:55.986Z</time></trkpt><trkpt lat="42.5144575" lon="12.5130796"><ele>96.0</ele><time>2026-03-29T10:04:02.985Z</time></trkpt><trkpt lat="42.5143859" lon="12.5130913"><ele>96.0</ele><time>2026-03-29T10:04:08.985Z</time></trkpt><trkpt lat="42.5143117" lon="12.5131042"><ele>95.99999999999999</ele><time>2026-03-29T10:04:15.985Z</time></trkpt><trkpt lat="42.5142481" lon="12.5131135"><ele>96.0</ele><time>2026-03-29T10:04:21.985Z</time></trkpt><trkpt lat="42.5141779" lon="12.5131235"><ele>95.99999999999999</ele><time>2026-03-29T10:04:28.985Z</time></trkpt><trkpt lat="42.5141091" lon="12.5131167"><ele>96.0</ele><time>2026-03-29T10:04:34.985Z</time></trkpt><trkpt lat="42.5140449" lon="12.5131214"><ele>96.0</ele><time>2026-03-29T10:04:41.986Z</time></trkpt><trkpt lat="42.5139788" lon="12.5131311"><ele>96.0</ele><time>2026-03-29T10:04:47.986Z</time></trkpt><trkpt lat="42.5139093" lon="12.5131418"><ele>96.0</ele><time>2026-03-29T10:04:53.985Z</time></trkpt><trkpt lat="42.5138417" lon="12.5131475"><ele>95.99999999999999</ele><time>2026-03-29T10:04:58.985Z</time></trkpt><trkpt lat="42.5137791" lon="12.5131587"><ele>96.0</ele><time>2026-03-29T10:05:04.984Z</time></trkpt><trkpt lat="42.5137157" lon="12.5131675"><ele>96.14285714285714</ele><time>2026-03-29T10:05:10.984Z</time></trkpt><trkpt lat="42.513652" lon="12.5131457"><ele>96.28571428571428</ele><time>2026-03-29T10:05:15.985Z</time></trkpt><trkpt lat="42.5135786" lon="12.5131512"><ele>96.42857142857142</ele><time>2026-03-29T10:05:21.985Z</time></trkpt><trkpt lat="42.5135092" lon="12.5131503"><ele>96.57142857142857</ele><time>2026-03-29T10:05:27.982Z</time></trkpt><trkpt lat="42.5134395" lon="12.5131498"><ele>96.71428571428572</ele><time>2026-03-29T10:05:34.985Z</time></trkpt><trkpt lat="42.5133627" lon="12.5131558"><ele>96.85714285714285</ele><time>2026-03-29T10:05:40.984Z</time></trkpt><trkpt lat="42.5132926" lon="12.5131611"><ele>97.0</ele><time>2026-03-29T10:05:46.986Z</time></trkpt><trkpt lat="42.5132271" lon="12.5131726"><ele>97.0</ele><time>2026-03-29T10:05:52.985Z</time></trkpt><trkpt lat="42.5131608" lon="12.5131954"><ele>97.0</ele><time>2026-03-29T10:05:58.985Z</time></trkpt><trkpt lat="42.5131025" lon="12.5132328"><ele>97.0</ele><time>2026-03-29T10:06:03.985Z</time></trkpt><trkpt lat="42.5130315" lon="12.5132296"><ele>97.0</ele><time>2026-03-29T10:06:09.985Z</time></trkpt><trkpt lat="42.5129645" lon="12.5132374"><ele>97.0</ele><time>2026-03-29T10:06:16.985Z</time></trkpt><trkpt lat="42.5128949" lon="12.5132488"><ele>97.0</ele><time>2026-03-29T10:06:22.985Z</time></trkpt><trkpt lat="42.5128222" lon="12.5132421"><ele>97.0</ele><time>2026-03-29T10:06:29.985Z</time></trkpt><trkpt lat="42.5127559" lon="12.5132309"><ele>97.14285714285714</ele><time>2026-03-29T10:06:35.986Z</time></trkpt><trkpt lat="42.5126899" lon="12.5132392"><ele>97.28571428571429</ele><time>2026-03-29T10:06:42.984Z</time></trkpt><trkpt lat="42.5126231" lon="12.5132484"><ele>97.42857142857143</ele><time>2026-03-29T10:06:49.984Z</time></trkpt><trkpt lat="42.5125567" lon="12.5132518"><ele>97.57142857142857</ele><time>2026-03-29T10:06:55.984Z</time></trkpt><trkpt lat="42.512492" lon="12.5132467"><ele>97.71428571428572</ele><time>2026-03-29T10:07:01.981Z</time></trkpt><trkpt lat="42.5124248" lon="12.5132554"><ele>97.85714285714286</ele><time>2026-03-29T10:07:07.983Z</time></trkpt><trkpt lat="42.5123617" lon="12.5132594"><ele>98.0</ele><time>2026-03-29T10:07:12.984Z</time></trkpt><trkpt lat="42.5122959" lon="12.5132626"><ele>98.0</ele><time>2026-03-29T10:07:18.983Z</time></trkpt><trkpt lat="42.5122312" lon="12.5132656"><ele>98.0</ele><time>2026-03-29T10:07:24.985Z</time></trkpt><trkpt lat="42.5121607" lon="12.513269"><ele>98.0</ele><time>2026-03-29T10:07:32.985Z</time></trkpt><trkpt lat="42.5120957" lon="12.513272"><ele>98.0</ele><time>2026-03-29T10:07:37.985Z</time></trkpt><trkpt lat="42.5120239" lon="12.513285"><ele>98.0</ele><time>2026-03-29T10:07:45.986Z</time></trkpt><trkpt lat="42.5119562" lon="12.5133044"><ele>98.0</ele><time>2026-03-29T10:07:51.984Z</time></trkpt><trkpt lat="42.5118909" lon="12.5132922"><ele>98.0</ele><time>2026-03-29T10:07:57.986Z</time></trkpt><trkpt lat="42.5118194" lon="12.5133107"><ele>98.42857142857143</ele><time>2026-03-29T10:08:04.986Z</time></trkpt><trkpt lat="42.5117455" lon="12.5133188"><ele>98.85714285714286</ele><time>2026-03-29T10:08:10.985Z</time></trkpt><trkpt lat="42.5116789" lon="12.5133319"><ele>99.28571428571428</ele><time>2026-03-29T10:08:17.983Z</time></trkpt><trkpt lat="42.5116101" lon="12.5133375"><ele>99.71428571428572</ele><time>2026-03-29T10:08:22.983Z</time></trkpt><trkpt lat="42.5115472" lon="12.5133305"><ele>100.14285714285714</ele><time>2026-03-29T10:08:28.984Z</time></trkpt><trkpt lat="42.5114859" lon="12.513309"><ele>100.57142857142857</ele><time>2026-03-29T10:08:34.984Z</time></trkpt><trkpt lat="42.5114206" lon="12.5133122"><ele>101.0</ele><time>2026-03-29T10:08:40.984Z</time></trkpt><trkpt lat="42.5113513" lon="12.5132934"><ele>101.0</ele><time>2026-03-29T10:08:46.984Z</time></trkpt><trkpt lat="42.5112781" lon="12.5132973"><ele>101.0</ele><time>2026-03-29T10:08:53.985Z</time></trkpt><trkpt lat="42.5112151" lon="12.5132989"><ele>101.0</ele><time>2026-03-29T10:08:58.985Z</time></trkpt><trkpt lat="42.5111491" lon="12.5132954"><ele>101.0</ele><time>2026-03-29T10:09:05.986Z</time></trkpt><trkpt lat="42.5110844" lon="12.5132949"><ele>101.0</ele><time>2026-03-29T10:09:12.984Z</time></trkpt><trkpt lat="42.5110119" lon="12.5133013"><ele>101.0</ele><time>2026-03-29T10:09:19.987Z</time></trkpt><trkpt lat="42.5109432" lon="12.513281"><ele>101.0</ele><time>2026-03-29T10:09:26.982Z</time></trkpt><trkpt lat="42.5108711" lon="12.5132632"><ele>100.85714285714286</ele><time>2026-03-29T10:09:32.985Z</time></trkpt><trkpt lat="42.5108071" lon="12.5132606"><ele>100.71428571428571</ele><time>2026-03-29T10:09:38.986Z</time></trkpt><trkpt lat="42.5107412" lon="12.5132714"><ele>100.57142857142858</ele><time>2026-03-29T10:09:44.985Z</time></trkpt><trkpt lat="42.5106765" lon="12.5132681"><ele>100.42857142857143</ele><time>2026-03-29T10:09:50.986Z</time></trkpt><trkpt lat="42.5106099" lon="12.5132677"><ele>100.28571428571429</ele><time>2026-03-29T10:09:56.985Z</time></trkpt><trkpt lat="42.510542" lon="12.5132566"><ele>100.14285714285715</ele><time>2026-03-29T10:10:02.985Z</time></trkpt><trkpt lat="42.5104726" lon="12.5132492"><ele>100.0</ele><time>2026-03-29T10:10:08.985Z</time></trkpt><trkpt lat="42.5104008" lon="12.5132562"><ele>100.00000000000001</ele><time>2026-03-29T10:10:15.984Z</time></trkpt><trkpt lat="42.5103307" lon="12.5132567"><ele>100.0</ele><time>2026-03-29T10:10:21.985Z</time></trkpt><trkpt lat="42.5102636" lon="12.5132404"><ele>100.0</ele><time>2026-03-29T10:10:27.986Z</time></trkpt><trkpt lat="42.510195" lon="12.513227"><ele>100.0</ele><time>2026-03-29T10:10:33.985Z</time></trkpt><trkpt lat="42.5101248" lon="12.5132127"><ele>100.0</ele><time>2026-03-29T10:10:40.984Z</time></trkpt><trkpt lat="42.5100614" lon="12.513218"><ele>100.00000000000001</ele><time>2026-03-29T10:10:46.985Z</time></trkpt><trkpt lat="42.5099916" lon="12.5132295"><ele>100.0</ele><time>2026-03-29T10:10:52.985Z</time></trkpt><trkpt lat="42.5099163" lon="12.5132239"><ele>100.00000000000001</ele><time>2026-03-29T10:10:58.985Z</time></trkpt><trkpt lat="42.5098436" lon="12.5132176"><ele>100.0</ele><time>2026-03-29T10:11:05.985Z</time></trkpt><trkpt lat="42.5097806" lon="12.5132238"><ele>100.0</ele><time>2026-03-29T10:11:10.986Z</time></trkpt><trkpt lat="42.5097116" lon="12.5132071"><ele>100.0</ele><time>2026-03-29T10:11:18.985Z</time></trkpt><trkpt lat="42.5096483" lon="12.5132022"><ele>100.0</ele><time>2026-03-29T10:11:24.985Z</time></trkpt><trkpt lat="42.5095747" lon="12.5131992"><ele>100.00000000000001</ele><time>2026-03-29T10:11:31.986Z</time></trkpt><trkpt lat="42.5095005" lon="12.5132016"><ele>100.0</ele><time>2026-03-29T10:11:37.986Z</time></trkpt><trkpt lat="42.5094284" lon="12.5131793"><ele>99.85714285714286</ele><time>2026-03-29T10:11:44.985Z</time></trkpt><trkpt lat="42.5093587" lon="12.5131738"><ele>99.71428571428572</ele><time>2026-03-29T10:11:49.985Z</time></trkpt><trkpt lat="42.5092895" lon="12.5131495"><ele>99.57142857142858</ele><time>2026-03-29T10:11:56.986Z</time></trkpt><trkpt lat="42.5092205" lon="12.5131555"><ele>99.42857142857143</ele><time>2026-03-29T10:12:02.986Z</time></trkpt><trkpt lat="42.5091512" lon="12.5131453"><ele>99.28571428571428</ele><time>2026-03-29T10:12:09.983Z</time></trkpt><trkpt lat="42.5090843" lon="12.5131624"><ele>99.14285714285715</ele><time>2026-03-29T10:12:15.983Z</time></trkpt><trkpt lat="42.509021" lon="12.5131696"><ele>99.0</ele><time>2026-03-29T10:12:21.985Z</time></trkpt><trkpt lat="42.5089553" lon="12.5131586"><ele>99.0</ele><time>2026-03-29T10:12:27.986Z</time></trkpt><trkpt lat="42.50889" lon="12.5131378"><ele>99.0</ele><time>2026-03-29T10:12:34.985Z</time></trkpt><trkpt lat="42.5088201" lon="12.5131421"><ele>99.0</ele><time>2026-03-29T10:12:40.985Z</time></trkpt><trkpt lat="42.5087542" lon="12.5131489"><ele>99.0</ele><time>2026-03-29T10:12:45.985Z</time></trkpt><trkpt lat="42.5086852" lon="12.5131475"><ele>99.0</ele><time>2026-03-29T10:12:52.985Z</time></trkpt><trkpt lat="42.5086172" lon="12.5131404"><ele>99.0</ele><time>2026-03-29T10:12:59.986Z</time></trkpt><trkpt lat="42.5085529" lon="12.5131249"><ele>99.0</ele><time>2026-03-29T10:13:04.985Z</time></trkpt><trkpt lat="42.5084863" lon="12.5130982"><ele>98.42857142857143</ele><time>2026-03-29T10:13:11.986Z</time></trkpt><trkpt lat="42.5084148" lon="12.5130919"><ele>97.85714285714285</ele><time>2026-03-29T10:13:17.985Z</time></trkpt><trkpt lat="42.5083516" lon="12.5130912"><ele>97.28571428571428</ele><time>2026-03-29T10:13:23.985Z</time></trkpt><trkpt lat="42.5082865" lon="12.5130825"><ele>96.71428571428572</ele><time>2026-03-29T10:13:29.986Z</time></trkpt><trkpt lat="42.508217" lon="12.5130959"><ele>96.14285714285714</ele><time>2026-03-29T10:13:36.984Z</time></trkpt><trkpt lat="42.508147" lon="12.5130843"><ele>95.57142857142857</ele><time>2026-03-29T10:13:42.986Z</time></trkpt><trkpt lat="42.5080744" lon="12.5130946"><ele>95.0</ele><time>2026-03-29T10:13:48.985Z</time></trkpt><trkpt lat="42.508006" lon="12.5130994"><ele>95.0</ele><time>2026-03-29T10:13:55.986Z</time></trkpt><trkpt lat="42.507941" lon="12.5131165"><ele>95.0</ele><time>2026-03-29T10:14:01.985Z</time></trkpt><trkpt lat="42.5078743" lon="12.5131018"><ele>95.0</ele><time>2026-03-29T10:14:07.983Z</time></trkpt><trkpt lat="42.5078072" lon="12.5131048"><ele>95.0</ele><time>2026-03-29T10:14:13.985Z</time></trkpt><trkpt lat="42.5077428" lon="12.5130878"><ele>95.0</ele><time>2026-03-29T10:14:18.983Z</time></trkpt><trkpt lat="42.5076689" lon="12.5130758"><ele>95.0</ele><time>2026-03-29T10:14:26.985Z</time></trkpt><trkpt lat="42.5075994" lon="12.5130598"><ele>95.0</ele><time>2026-03-29T10:14:31.986Z</time></trkpt><trkpt lat="42.5075309" lon="12.5130642"><ele>96.0</ele><time>2026-03-29T10:14:37.985Z</time></trkpt><trkpt lat="42.5074701" lon="12.5130402"><ele>97.0</ele><time>2026-03-29T10:14:44.986Z</time></trkpt><trkpt lat="42.507406" lon="12.513032"><ele>98.0</ele><time>2026-03-29T10:14:50.984Z</time></trkpt><trkpt lat="42.5073386" lon="12.5130185"><ele>99.0</ele><time>2026-03-29T10:14:57.986Z</time></trkpt><trkpt lat="42.5072758" lon="12.5130274"><ele>100.0</ele><time>2026-03-29T10:15:02.985Z</time></trkpt><trkpt lat="42.5072095" lon="12.5130248"><ele>101.0</ele><time>2026-03-29T10:15:10.984Z</time></trkpt><trkpt lat="42.5071464" lon="12.5129936"><ele>102.0</ele><time>2026-03-29T10:15:17.985Z</time></trkpt><trkpt lat="42.5070864" lon="12.5130366"><ele>91.0</ele><time>2026-03-29T10:15:21.985Z</time></trkpt><trkpt lat="42.5044688" lon="12.51128"><ele>91.0</ele><time>2026-03-29T10:19:22.986Z</time></trkpt></trkseg><trkseg><trkpt lat="42.5035662" lon="12.5090134"><ele>85.0</ele><time>2026-03-29T10:30:10.982Z</time></trkpt><trkpt lat="42.5035548" lon="12.5089238"><ele>85.0</ele><time>2026-03-29T10:30:16.983Z</time></trkpt><trkpt lat="42.5035414" lon="12.5088266"><ele>85.0</ele><time>2026-03-29T10:30:29.986Z</time></trkpt><trkpt lat="42.5035319" lon="12.5087416"><ele>85.0</ele><time>2026-03-29T10:30:34.983Z</time></trkpt><trkpt lat="42.5035073" lon="12.5086617"><ele>85.0</ele><time>2026-03-29T10:30:40.982Z</time></trkpt><trkpt lat="42.5035161" lon="12.5085645"><ele>85.0</ele><time>2026-03-29T10:30:46.984Z</time></trkpt><trkpt lat="42.5035203" lon="12.5084696"><ele>85.0</ele><time>2026-03-29T10:30:51.986Z</time></trkpt><trkpt lat="42.5035111" lon="12.5083827"><ele>85.85714285714286</ele><time>2026-03-29T10:30:58.982Z</time></trkpt><trkpt lat="42.5035024" lon="12.508291"><ele>86.71428571428571</ele><time>2026-03-29T10:31:05.985Z</time></trkpt><trkpt lat="42.5035003" lon="12.5081919"><ele>87.57142857142857</ele><time>2026-03-29T10:31:10.986Z</time></trkpt><trkpt lat="42.5034942" lon="12.5080998"><ele>88.42857142857143</ele><time>2026-03-29T10:31:15.984Z</time></trkpt><trkpt lat="42.5034754" lon="12.5080076"><ele>89.28571428571428</ele><time>2026-03-29T10:31:21.985Z</time></trkpt><trkpt lat="42.5035009" lon="12.5080994"><ele>90.14285714285714</ele><time>2026-03-29T10:32:17.985Z</time></trkpt><trkpt lat="42.5034979" lon="12.5081942"><ele>91.0</ele><time>2026-03-29T10:32:23.985Z</time></trkpt><trkpt lat="42.5035177" lon="12.5082866"><ele>91.0</ele><time>2026-03-29T10:32:31.984Z</time></trkpt><trkpt lat="42.5035287" lon="12.5083778"><ele>91.0</ele><time>2026-03-29T10:32:38.983Z</time></trkpt><trkpt lat="42.5035449" lon="12.5084669"><ele>91.0</ele><time>2026-03-29T10:32:43.982Z</time></trkpt><trkpt lat="42.5035324" lon="12.5085754"><ele>91.0</ele><time>2026-03-29T10:32:49.981Z</time></trkpt><trkpt lat="42.5035337" lon="12.5086615"><ele>91.0</ele><time>2026-03-29T10:32:55.981Z</time></trkpt><trkpt lat="42.5035398" lon="12.5087512"><ele>91.0</ele><time>2026-03-29T10:33:02.984Z</time></trkpt><trkpt lat="42.5035621" lon="12.5088425"><ele>91.0</ele><time>2026-03-29T10:33:08.982Z</time></trkpt><trkpt lat="42.5035809" lon="12.5089354"><ele>90.14285714285714</ele><time>2026-03-29T10:33:14.984Z</time></trkpt><trkpt lat="42.5036018" lon="12.5090318"><ele>89.28571428571428</ele><time>2026-03-29T10:33:20.986Z</time></trkpt><trkpt lat="42.5036299" lon="12.5091242"><ele>88.42857142857143</ele><time>2026-03-29T10:33:26.986Z</time></trkpt><trkpt lat="42.5036321" lon="12.5092185"><ele>87.57142857142857</ele><time>2026-03-29T10:33:32.985Z</time></trkpt><trkpt lat="42.5036331" lon="12.5093045"><ele>86.71428571428571</ele><time>2026-03-29T10:33:39.985Z</time></trkpt><trkpt lat="42.5036604" lon="12.509382"><ele>85.85714285714286</ele><time>2026-03-29T10:33:44.986Z</time></trkpt><trkpt lat="42.5036825" lon="12.5094718"><ele>85.0</ele><time>2026-03-29T10:33:50.985Z</time></trkpt><trkpt lat="42.5037077" lon="12.5095622"><ele>84.57142857142857</ele><time>2026-03-29T10:33:58.982Z</time></trkpt><trkpt lat="42.5037125" lon="12.5096645"><ele>84.14285714285714</ele><time>2026-03-29T10:34:04.984Z</time></trkpt><trkpt lat="42.5037156" lon="12.5097529"><ele>83.71428571428571</ele><time>2026-03-29T10:34:09.983Z</time></trkpt><trkpt lat="42.5037425" lon="12.5098402"><ele>83.28571428571428</ele><time>2026-03-29T10:34:15.986Z</time></trkpt><trkpt lat="42.5037539" lon="12.5099268"><ele>82.85714285714286</ele><time>2026-03-29T10:34:21.985Z</time></trkpt><trkpt lat="42.5037935" lon="12.5099958"><ele>82.42857142857142</ele><time>2026-03-29T10:34:26.984Z</time></trkpt><trkpt lat="42.5038203" lon="12.5100793"><ele>82.0</ele><time>2026-03-29T10:34:33.982Z</time></trkpt><trkpt lat="42.5038448" lon="12.510166"><ele>83.85714285714285</ele><time>2026-03-29T10:34:39.984Z</time></trkpt><trkpt lat="42.5038785" lon="12.5102462"><ele>85.71428571428571</ele><time>2026-03-29T10:34:45.985Z</time></trkpt><trkpt lat="42.5039144" lon="12.51033"><ele>87.57142857142857</ele><time>2026-03-29T10:34:51.983Z</time></trkpt><trkpt lat="42.5039354" lon="12.5104124"><ele>89.42857142857142</ele><time>2026-03-29T10:34:56.985Z</time></trkpt><trkpt lat="42.5039666" lon="12.5104974"><ele>91.28571428571429</ele><time>2026-03-29T10:35:02.983Z</time></trkpt><trkpt lat="42.5040034" lon="12.5105811"><ele>93.14285714285714</ele><time>2026-03-29T10:35:09.982Z</time></trkpt><trkpt lat="42.5040283" lon="12.5106648"><ele>95.0</ele><time>2026-03-29T10:35:15.984Z</time></trkpt><trkpt lat="42.5040567" lon="12.5107414"><ele>95.0</ele><time>2026-03-29T10:35:20.985Z</time></trkpt><trkpt lat="42.5041078" lon="12.5108076"><ele>95.0</ele><time>2026-03-29T10:35:27.983Z</time></trkpt><trkpt lat="42.5041373" lon="12.510886"><ele>95.0</ele><time>2026-03-29T10:35:33.984Z</time></trkpt><trkpt lat="42.5041734" lon="12.5109665"><ele>95.0</ele><time>2026-03-29T10:35:38.986Z</time></trkpt><trkpt lat="42.5042135" lon="12.5110341"><ele>95.0</ele><time>2026-03-29T10:35:43.986Z</time></trkpt><trkpt lat="42.5042586" lon="12.5110942"><ele>95.0</ele><time>2026-03-29T10:35:49.983Z</time></trkpt><trkpt lat="42.5043037" lon="12.5111651"><ele>95.0</ele><time>2026-03-29T10:35:55.982Z</time></trkpt><trkpt lat="42.5043534" lon="12.5112429"><ele>94.42857142857143</ele><time>2026-03-29T10:36:01.985Z</time></trkpt><trkpt lat="42.5044007" lon="12.5113129"><ele>93.85714285714286</ele><time>2026-03-29T10:36:07.986Z</time></trkpt><trkpt lat="42.5044543" lon="12.5113677"><ele>93.28571428571428</ele><time>2026-03-29T10:36:12.984Z</time></trkpt><trkpt lat="42.5044849" lon="12.5114524"><ele>92.71428571428572</ele><time>2026-03-29T10:36:19.983Z</time></trkpt><trkpt lat="42.5045284" lon="12.5115241"><ele>92.14285714285714</ele><time>2026-03-29T10:36:26.987Z</time></trkpt><trkpt lat="42.5045764" lon="12.5115798"><ele>91.57142857142857</ele><time>2026-03-29T10:36:32.985Z</time></trkpt><trkpt lat="42.5045834" lon="12.511676"><ele>91.0</ele><time>2026-03-29T10:36:40.982Z</time></trkpt><trkpt lat="42.5046143" lon="12.5117522"><ele>102.0</ele><time>2026-03-29T10:36:47.984Z</time></trkpt><trkpt lat="42.5075571" lon="12.5131795"><ele>102.0</ele><time>2026-03-29T10:40:44.985Z</time></trkpt><trkpt lat="42.5075667" lon="12.512949"><ele>102.0</ele><time>2026-03-29T10:40:45.988Z</time></trkpt><trkpt lat="42.5073987" lon="12.512965"><ele>102.0</ele><time>2026-03-29T10:40:53.985Z</time></trkpt><trkpt lat="42.5074292" lon="12.5130436"><ele>102.0</ele><time>2026-03-29T10:41:10.986Z</time></trkpt><trkpt lat="42.5075098" lon="12.5130464"><ele>102.0</ele><time>2026-03-29T10:41:16.984Z</time></trkpt><trkpt lat="42.5077015" lon="12.5130443"><ele>102.0</ele><time>2026-03-29T10:41:33.985Z</time></trkpt><trkpt lat="42.5078733" lon="12.5130534"><ele>102.0</ele><time>2026-03-29T10:41:47.986Z</time></trkpt><trkpt lat="42.5079446" lon="12.5130642"><ele>102.0</ele><time>2026-03-29T10:41:53.986Z</time></trkpt><trkpt lat="42.5080075" lon="12.5130387"><ele>100.6</ele><time>2026-03-29T10:41:58.986Z</time></trkpt><trkpt lat="42.5081014" lon="12.5130315"><ele>99.19999999999999</ele><time>2026-03-29T10:42:07.986Z</time></trkpt><trkpt lat="42.508172" lon="12.5130208"><ele>97.8</ele><time>2026-03-29T10:42:14.984Z</time></trkpt><trkpt lat="42.508236" lon="12.513029"><ele>96.4</ele><time>2026-03-29T10:42:20.986Z</time></trkpt><trkpt lat="42.5082952" lon="12.5130655"><ele>95.0</ele><time>2026-03-29T10:42:25.986Z</time></trkpt><trkpt lat="42.5084586" lon="12.5130693"><ele>95.0</ele><time>2026-03-29T10:42:40.985Z</time></trkpt><trkpt lat="42.5085319" lon="12.5130936"><ele>95.0</ele><time>2026-03-29T10:42:46.985Z</time></trkpt><trkpt lat="42.508732" lon="12.5130947"><ele>95.0</ele><time>2026-03-29T10:43:02.987Z</time></trkpt><trkpt lat="42.5088022" lon="12.5130782"><ele>95.0</ele><time>2026-03-29T10:43:09.985Z</time></trkpt><trkpt lat="42.5089266" lon="12.5130755"><ele>95.66666666666667</ele><time>2026-03-29T10:43:20.986Z</time></trkpt><trkpt lat="42.508991" lon="12.5131072"><ele>96.33333333333334</ele><time>2026-03-29T10:43:26.986Z</time></trkpt><trkpt lat="42.5090547" lon="12.5131313"><ele>97.0</ele><time>2026-03-29T10:43:33.986Z</time></trkpt><trkpt lat="42.50912" lon="12.5131422"><ele>97.66666666666667</ele><time>2026-03-29T10:43:39.984Z</time></trkpt><trkpt lat="42.509188" lon="12.513164"><ele>98.33333333333333</ele><time>2026-03-29T10:43:46.986Z</time></trkpt><trkpt lat="42.50926" lon="12.5131816"><ele>99.0</ele><time>2026-03-29T10:43:52.986Z</time></trkpt><trkpt lat="42.5094348" lon="12.5131846"><ele>99.0</ele><time>2026-03-29T10:44:07.984Z</time></trkpt><trkpt lat="42.5094995" lon="12.5131608"><ele>99.0</ele><time>2026-03-29T10:44:14.986Z</time></trkpt><trkpt lat="42.5095859" lon="12.5131635"><ele>99.0</ele><time>2026-03-29T10:44:21.985Z</time></trkpt><trkpt lat="42.5096506" lon="12.5131814"><ele>99.0</ele><time>2026-03-29T10:44:26.984Z</time></trkpt><trkpt lat="42.5097194" lon="12.5131896"><ele>99.0</ele><time>2026-03-29T10:44:31.985Z</time></trkpt><trkpt lat="42.5098144" lon="12.5131909"><ele>99.0</ele><time>2026-03-29T10:44:39.982Z</time></trkpt><trkpt lat="42.5100038" lon="12.5131931"><ele>99.0</ele><time>2026-03-29T10:44:53.983Z</time></trkpt><trkpt lat="42.5101456" lon="12.5132204"><ele>99.0</ele><time>2026-03-29T10:45:06.986Z</time></trkpt><trkpt lat="42.5102334" lon="12.5132141"><ele>99.0</ele><time>2026-03-29T10:45:15.986Z</time></trkpt><trkpt lat="42.5103003" lon="12.5131978"><ele>99.0</ele><time>2026-03-29T10:45:20.983Z</time></trkpt><trkpt lat="42.5103702" lon="12.5131906"><ele>99.0</ele><time>2026-03-29T10:45:25.986Z</time></trkpt><trkpt lat="42.510539" lon="12.513179"><ele>99.0</ele><time>2026-03-29T10:45:38.982Z</time></trkpt><trkpt lat="42.5106093" lon="12.5132134"><ele>99.0</ele><time>2026-03-29T10:45:43.982Z</time></trkpt><trkpt lat="42.5106732" lon="12.5132294"><ele>99.0</ele><time>2026-03-29T10:45:48.983Z</time></trkpt><trkpt lat="42.5107359" lon="12.513246"><ele>99.0</ele><time>2026-03-29T10:45:53.982Z</time></trkpt><trkpt lat="42.5108057" lon="12.5132629"><ele>99.0</ele><time>2026-03-29T10:45:59.982Z</time></trkpt><trkpt lat="42.5109692" lon="12.5132531"><ele>99.0</ele><time>2026-03-29T10:46:14.983Z</time></trkpt><trkpt lat="42.5110358" lon="12.5132695"><ele>99.0</ele><time>2026-03-29T10:46:21.982Z</time></trkpt><trkpt lat="42.5111044" lon="12.5132861"><ele>99.0</ele><time>2026-03-29T10:46:28.984Z</time></trkpt><trkpt lat="42.5113192" lon="12.5132925"><ele>99.0</ele><time>2026-03-29T10:46:47.982Z</time></trkpt><trkpt lat="42.511412" lon="12.5132861"><ele>99.0</ele><time>2026-03-29T10:46:58.982Z</time></trkpt><trkpt lat="42.5114767" lon="12.5132901"><ele>99.0</ele><time>2026-03-29T10:47:05.983Z</time></trkpt><trkpt lat="42.5115512" lon="12.5133021"><ele>99.33333333333333</ele><time>2026-03-29T10:47:11.982Z</time></trkpt><trkpt lat="42.5116105" lon="12.5133343"><ele>99.66666666666666</ele><time>2026-03-29T10:47:16.983Z</time></trkpt><trkpt lat="42.5116733" lon="12.5133688"><ele>100.0</ele><time>2026-03-29T10:47:22.983Z</time></trkpt><trkpt lat="42.5117445" lon="12.5133753"><ele>100.33333333333333</ele><time>2026-03-29T10:47:28.983Z</time></trkpt><trkpt lat="42.5118026" lon="12.5133379"><ele>100.66666666666666</ele><time>2026-03-29T10:47:33.982Z</time></trkpt><trkpt lat="42.5118986" lon="12.5133206"><ele>101.0</ele><time>2026-03-29T10:47:40.983Z</time></trkpt><trkpt lat="42.5120609" lon="12.513319"><ele>100.57142857142857</ele><time>2026-03-29T10:47:55.982Z</time></trkpt><trkpt lat="42.5121272" lon="12.5132904"><ele>100.14285714285714</ele><time>2026-03-29T10:48:01.983Z</time></trkpt><trkpt lat="42.5121923" lon="12.513272"><ele>99.71428571428572</ele><time>2026-03-29T10:48:07.984Z</time></trkpt><trkpt lat="42.5122591" lon="12.5132602"><ele>99.28571428571428</ele><time>2026-03-29T10:48:13.985Z</time></trkpt><trkpt lat="42.5123273" lon="12.5132381"><ele>98.85714285714286</ele><time>2026-03-29T10:48:19.986Z</time></trkpt><trkpt lat="42.5123909" lon="12.5132182"><ele>98.42857142857143</ele><time>2026-03-29T10:48:25.983Z</time></trkpt><trkpt lat="42.5124666" lon="12.5131991"><ele>98.0</ele><time>2026-03-29T10:48:31.985Z</time></trkpt><trkpt lat="42.5125293" lon="12.5131879"><ele>98.0</ele><time>2026-03-29T10:48:35.984Z</time></trkpt><trkpt lat="42.5125945" lon="12.513186"><ele>98.0</ele><time>2026-03-29T10:48:41.984Z</time></trkpt><trkpt lat="42.5126619" lon="12.513166"><ele>98.0</ele><time>2026-03-29T10:48:48.983Z</time></trkpt><trkpt lat="42.5127563" lon="12.5131655"><ele>98.0</ele><time>2026-03-29T10:48:57.984Z</time></trkpt><trkpt lat="42.5128181" lon="12.5131477"><ele>98.0</ele><time>2026-03-29T10:49:02.985Z</time></trkpt><trkpt lat="42.5130073" lon="12.5131445"><ele>97.75</ele><time>2026-03-29T10:49:19.983Z</time></trkpt><trkpt lat="42.5130832" lon="12.5131201"><ele>97.5</ele><time>2026-03-29T10:49:27.986Z</time></trkpt><trkpt lat="42.5132306" lon="12.5131101"><ele>97.25</ele><time>2026-03-29T10:49:39.985Z</time></trkpt><trkpt lat="42.5134111" lon="12.5131103"><ele>97.0</ele><time>2026-03-29T10:49:54.983Z</time></trkpt><trkpt lat="42.5135001" lon="12.5131136"><ele>97.0</ele><time>2026-03-29T10:50:02.986Z</time></trkpt><trkpt lat="42.5135725" lon="12.5131142"><ele>97.0</ele><time>2026-03-29T10:50:09.985Z</time></trkpt><trkpt lat="42.5136501" lon="12.5131119"><ele>97.0</ele><time>2026-03-29T10:50:17.984Z</time></trkpt><trkpt lat="42.5137178" lon="12.5131085"><ele>97.0</ele><time>2026-03-29T10:50:24.984Z</time></trkpt><trkpt lat="42.5137859" lon="12.5130989"><ele>97.0</ele><time>2026-03-29T10:50:29.985Z</time></trkpt><trkpt lat="42.5138768" lon="12.5131073"><ele>97.0</ele><time>2026-03-29T10:50:36.985Z</time></trkpt><trkpt lat="42.513947" lon="12.513128"><ele>97.0</ele><time>2026-03-29T10:50:42.983Z</time></trkpt><trkpt lat="42.5140205" lon="12.5131388"><ele>96.85714285714285</ele><time>2026-03-29T10:50:50.982Z</time></trkpt><trkpt lat="42.5140937" lon="12.5131273"><ele>96.71428571428572</ele><time>2026-03-29T10:50:57.982Z</time></trkpt><trkpt lat="42.5141729" lon="12.5131162"><ele>96.57142857142857</ele><time>2026-03-29T10:51:03.983Z</time></trkpt><trkpt lat="42.5142415" lon="12.5130911"><ele>96.42857142857142</ele><time>2026-03-29T10:51:09.984Z</time></trkpt><trkpt lat="42.5143011" lon="12.513056"><ele>96.28571428571428</ele><time>2026-03-29T10:51:14.986Z</time></trkpt><trkpt lat="42.5143665" lon="12.5130257"><ele>96.14285714285714</ele><time>2026-03-29T10:51:19.984Z</time></trkpt><trkpt lat="42.5144388" lon="12.5130103"><ele>96.0</ele><time>2026-03-29T10:51:26.986Z</time></trkpt><trkpt lat="42.5145017" lon="12.5129871"><ele>95.99999999999999</ele><time>2026-03-29T10:51:32.985Z</time></trkpt><trkpt lat="42.5145673" lon="12.5129641"><ele>96.0</ele><time>2026-03-29T10:51:39.985Z</time></trkpt><trkpt lat="42.5146289" lon="12.5129375"><ele>96.0</ele><time>2026-03-29T10:51:45.982Z</time></trkpt><trkpt lat="42.5146892" lon="12.5129036"><ele>96.0</ele><time>2026-03-29T10:51:52.981Z</time></trkpt><trkpt lat="42.5147459" lon="12.5128615"><ele>96.0</ele><time>2026-03-29T10:51:58.982Z</time></trkpt><trkpt lat="42.5148123" lon="12.5128415"><ele>95.99999999999999</ele><time>2026-03-29T10:52:04.985Z</time></trkpt><trkpt lat="42.5148833" lon="12.5128076"><ele>96.0</ele><time>2026-03-29T10:52:10.985Z</time></trkpt><trkpt lat="42.5149429" lon="12.5127743"><ele>99.28571428571428</ele><time>2026-03-29T10:52:15.983Z</time></trkpt><trkpt lat="42.5150056" lon="12.5127441"><ele>102.57142857142857</ele><time>2026-03-29T10:52:21.985Z</time></trkpt><trkpt lat="42.5150687" lon="12.5127212"><ele>105.85714285714286</ele><time>2026-03-29T10:52:26.986Z</time></trkpt><trkpt lat="42.5151314" lon="12.5126864"><ele>109.14285714285714</ele><time>2026-03-29T10:52:33.983Z</time></trkpt><trkpt lat="42.5151996" lon="12.5126548"><ele>112.42857142857143</ele><time>2026-03-29T10:52:39.984Z</time></trkpt><trkpt lat="42.5152634" lon="12.5126233"><ele>115.71428571428571</ele><time>2026-03-29T10:52:46.985Z</time></trkpt><trkpt lat="42.5153258" lon="12.5125941"><ele>119.0</ele><time>2026-03-29T10:52:51.986Z</time></trkpt><trkpt lat="42.515388" lon="12.5125651"><ele>116.57142857142857</ele><time>2026-03-29T10:52:57.986Z</time></trkpt><trkpt lat="42.5154564" lon="12.5125344"><ele>114.14285714285714</ele><time>2026-03-29T10:53:03.985Z</time></trkpt><trkpt lat="42.515515" lon="12.512492"><ele>111.71428571428572</ele><time>2026-03-29T10:53:09.986Z</time></trkpt><trkpt lat="42.5155739" lon="12.5124544"><ele>109.28571428571428</ele><time>2026-03-29T10:53:15.986Z</time></trkpt><trkpt lat="42.5156352" lon="12.5124172"><ele>106.85714285714286</ele><time>2026-03-29T10:53:21.986Z</time></trkpt><trkpt lat="42.5156963" lon="12.5123823"><ele>104.42857142857143</ele><time>2026-03-29T10:53:27.985Z</time></trkpt><trkpt lat="42.5157601" lon="12.5123561"><ele>102.0</ele><time>2026-03-29T10:53:34.986Z</time></trkpt><trkpt lat="42.5158255" lon="12.5123195"><ele>102.0</ele><time>2026-03-29T10:53:41.984Z</time></trkpt><trkpt lat="42.5158919" lon="12.5122858"><ele>102.0</ele><time>2026-03-29T10:53:47.986Z</time></trkpt><trkpt lat="42.5159567" lon="12.5122524"><ele>102.0</ele><time>2026-03-29T10:53:53.986Z</time></trkpt><trkpt lat="42.5160197" lon="12.5122216"><ele>102.0</ele><time>2026-03-29T10:53:59.986Z</time></trkpt><trkpt lat="42.51609" lon="12.5121988"><ele>102.0</ele><time>2026-03-29T10:54:06.986Z</time></trkpt><trkpt lat="42.5161507" lon="12.5121631"><ele>102.0</ele><time>2026-03-29T10:54:12.984Z</time></trkpt><trkpt lat="42.5162077" lon="12.5121081"><ele>102.0</ele><time>2026-03-29T10:54:19.985Z</time></trkpt><trkpt lat="42.5162777" lon="12.5120822"><ele>101.14285714285714</ele><time>2026-03-29T10:54:25.985Z</time></trkpt><trkpt lat="42.5163436" lon="12.5120737"><ele>100.28571428571429</ele><time>2026-03-29T10:54:31.985Z</time></trkpt><trkpt lat="42.5163996" lon="12.5120253"><ele>99.42857142857142</ele><time>2026-03-29T10:54:37.985Z</time></trkpt><trkpt lat="42.5164768" lon="12.5120818"><ele>98.57142857142857</ele><time>2026-03-29T10:56:17.986Z</time></trkpt><trkpt lat="42.5165297" lon="12.5120297"><ele>97.71428571428571</ele><time>2026-03-29T10:56:23.985Z</time></trkpt><trkpt lat="42.5165927" lon="12.5119816"><ele>96.85714285714285</ele><time>2026-03-29T10:56:28.984Z</time></trkpt><trkpt lat="42.5166426" lon="12.511923"><ele>96.0</ele><time>2026-03-29T10:56:33.985Z</time></trkpt><trkpt lat="42.5166808" lon="12.5118488"><ele>96.85714285714285</ele><time>2026-03-29T10:56:40.984Z</time></trkpt><trkpt lat="42.5167455" lon="12.5118038"><ele>97.71428571428571</ele><time>2026-03-29T10:56:46.985Z</time></trkpt><trkpt lat="42.5168072" lon="12.5117746"><ele>98.57142857142857</ele><time>2026-03-29T10:56:53.986Z</time></trkpt><trkpt lat="42.5168779" lon="12.5117485"><ele>99.42857142857142</ele><time>2026-03-29T10:56:59.986Z</time></trkpt><trkpt lat="42.5169362" lon="12.5116974"><ele>100.28571428571429</ele><time>2026-03-29T10:57:06.986Z</time></trkpt><trkpt lat="42.5169995" lon="12.5116685"><ele>101.14285714285714</ele><time>2026-03-29T10:57:12.984Z</time></trkpt><trkpt lat="42.5170634" lon="12.5116471"><ele>102.0</ele><time>2026-03-29T10:57:17.985Z</time></trkpt><trkpt lat="42.5171226" lon="12.5115959"><ele>102.0</ele><time>2026-03-29T10:57:23.986Z</time></trkpt><trkpt lat="42.5171789" lon="12.5115462"><ele>102.0</ele><time>2026-03-29T10:57:28.983Z</time></trkpt><trkpt lat="42.5172329" lon="12.5114999"><ele>102.0</ele><time>2026-03-29T10:57:34.986Z</time></trkpt><trkpt lat="42.5173025" lon="12.5114636"><ele>102.0</ele><time>2026-03-29T10:57:41.985Z</time></trkpt><trkpt lat="42.5173658" lon="12.5114523"><ele>102.0</ele><time>2026-03-29T10:57:45.985Z</time></trkpt><trkpt lat="42.5174299" lon="12.5114017"><ele>102.0</ele><time>2026-03-29T10:57:51.982Z</time></trkpt><trkpt lat="42.5174892" lon="12.5113723"><ele>102.0</ele><time>2026-03-29T10:57:57.983Z</time></trkpt><trkpt lat="42.5175585" lon="12.5113593"><ele>102.0</ele><time>2026-03-29T10:58:05.984Z</time></trkpt><trkpt lat="42.5176226" lon="12.5113226"><ele>102.0</ele><time>2026-03-29T10:58:12.985Z</time></trkpt><trkpt lat="42.5176889" lon="12.5113022"><ele>102.0</ele><time>2026-03-29T10:58:18.983Z</time></trkpt><trkpt lat="42.5177525" lon="12.5112826"><ele>102.0</ele><time>2026-03-29T10:58:24.983Z</time></trkpt><trkpt lat="42.5178148" lon="12.5112588"><ele>102.0</ele><time>2026-03-29T10:58:29.985Z</time></trkpt><trkpt lat="42.5178798" lon="12.5112247"><ele>102.0</ele><time>2026-03-29T10:58:36.985Z</time></trkpt><trkpt lat="42.5179406" lon="12.5111739"><ele>102.0</ele><time>2026-03-29T10:58:43.985Z</time></trkpt><trkpt lat="42.5180049" lon="12.5111442"><ele>105.5</ele><time>2026-03-29T10:58:49.985Z</time></trkpt><trkpt lat="42.5181977" lon="12.5111176"><ele>109.0</ele><time>2026-03-29T10:59:06.988Z</time></trkpt><trkpt lat="42.5183252" lon="12.5110957"><ele>112.5</ele><time>2026-03-29T10:59:17.986Z</time></trkpt><trkpt lat="42.5183979" lon="12.5110811"><ele>116.0</ele><time>2026-03-29T10:59:24.984Z</time></trkpt><trkpt lat="42.5185963" lon="12.5110594"><ele>115.99999999999999</ele><time>2026-03-29T10:59:42.986Z</time></trkpt><trkpt lat="42.518692" lon="12.5110583"><ele>116.0</ele><time>2026-03-29T10:59:51.984Z</time></trkpt><trkpt lat="42.5187595" lon="12.5110422"><ele>116.0</ele><time>2026-03-29T10:59:58.983Z</time></trkpt><trkpt lat="42.5188215" lon="12.5110273"><ele>116.0</ele><time>2026-03-29T11:00:04.984Z</time></trkpt><trkpt lat="42.5188869" lon="12.5110104"><ele>115.99999999999999</ele><time>2026-03-29T11:00:10.983Z</time></trkpt><trkpt lat="42.5189492" lon="12.5109968"><ele>116.0</ele><time>2026-03-29T11:00:16.984Z</time></trkpt><trkpt lat="42.519138" lon="12.5109878"><ele>114.66666666666666</ele><time>2026-03-29T11:00:34.986Z</time></trkpt><trkpt lat="42.5192017" lon="12.5109601"><ele>113.33333333333333</ele><time>2026-03-29T11:00:39.987Z</time></trkpt><trkpt lat="42.5192671" lon="12.5109538"><ele>112.0</ele><time>2026-03-29T11:00:45.982Z</time></trkpt><trkpt lat="42.519337" lon="12.5109298"><ele>110.66666666666666</ele><time>2026-03-29T11:00:51.984Z</time></trkpt><trkpt lat="42.519449" lon="12.5109175"><ele>109.33333333333333</ele><time>2026-03-29T11:01:02.988Z</time></trkpt><trkpt lat="42.5195194" lon="12.5109128"><ele>108.0</ele><time>2026-03-29T11:01:07.985Z</time></trkpt><trkpt lat="42.5195824" lon="12.5108916"><ele>107.42857142857143</ele><time>2026-03-29T11:01:13.984Z</time></trkpt><trkpt lat="42.5196493" lon="12.5108748"><ele>106.85714285714286</ele><time>2026-03-29T11:01:19.985Z</time></trkpt><trkpt lat="42.5197251" lon="12.5108603"><ele>106.28571428571428</ele><time>2026-03-29T11:01:27.985Z</time></trkpt><trkpt lat="42.5197867" lon="12.5108292"><ele>105.71428571428572</ele><time>2026-03-29T11:01:33.986Z</time></trkpt><trkpt lat="42.5198543" lon="12.5108116"><ele>105.14285714285715</ele><time>2026-03-29T11:01:39.984Z</time></trkpt><trkpt lat="42.519919" lon="12.5107899"><ele>104.57142857142857</ele><time>2026-03-29T11:01:45.985Z</time></trkpt><trkpt lat="42.5199872" lon="12.5107732"><ele>104.0</ele><time>2026-03-29T11:01:51.985Z</time></trkpt><trkpt lat="42.52005" lon="12.5107618"><ele>104.0</ele><time>2026-03-29T11:01:57.985Z</time></trkpt><trkpt lat="42.5201114" lon="12.5107201"><ele>104.0</ele><time>2026-03-29T11:02:03.985Z</time></trkpt><trkpt lat="42.5201798" lon="12.5107007"><ele>104.0</ele><time>2026-03-29T11:02:10.985Z</time></trkpt><trkpt lat="42.5202356" lon="12.5106572"><ele>104.0</ele><time>2026-03-29T11:02:16.985Z</time></trkpt><trkpt lat="42.5203101" lon="12.5106488"><ele>104.0</ele><time>2026-03-29T11:02:23.985Z</time></trkpt><trkpt lat="42.5203745" lon="12.5106588"><ele>104.0</ele><time>2026-03-29T11:02:29.986Z</time></trkpt><trkpt lat="42.5204154" lon="12.5107313"><ele>104.0</ele><time>2026-03-29T11:02:36.985Z</time></trkpt><trkpt lat="42.5204662" lon="12.5107901"><ele>104.71428571428571</ele><time>2026-03-29T11:02:44.986Z</time></trkpt><trkpt lat="42.5204107" lon="12.510732"><ele>105.42857142857143</ele><time>2026-03-29T11:03:16.986Z</time></trkpt><trkpt lat="42.5204446" lon="12.5106418"><ele>106.14285714285714</ele><time>2026-03-29T11:03:21.985Z</time></trkpt><trkpt lat="42.5204935" lon="12.5105813"><ele>106.85714285714286</ele><time>2026-03-29T11:03:28.984Z</time></trkpt><trkpt lat="42.5205508" lon="12.5105413"><ele>107.57142857142858</ele><time>2026-03-29T11:03:34.984Z</time></trkpt><trkpt lat="42.5206143" lon="12.5104993"><ele>108.28571428571429</ele><time>2026-03-29T11:03:40.985Z</time></trkpt><trkpt lat="42.5206724" lon="12.5104594"><ele>109.0</ele><time>2026-03-29T11:03:46.987Z</time></trkpt><trkpt lat="42.5227443" lon="12.5098834"><ele>109.00000000000001</ele><time>2026-03-29T11:06:23.986Z</time></trkpt><trkpt lat="42.5228364" lon="12.5098544"><ele>109.0</ele><time>2026-03-29T11:06:24.984Z</time></trkpt><trkpt lat="42.5227736" lon="12.5098716"><ele>109.0</ele><time>2026-03-29T11:06:41.984Z</time></trkpt><trkpt lat="42.5226846" lon="12.5098524"><ele>109.0</ele><time>2026-03-29T11:06:43.985Z</time></trkpt><trkpt lat="42.5227923" lon="12.5098455"><ele>109.00000000000001</ele><time>2026-03-29T11:07:03.984Z</time></trkpt><trkpt lat="42.5228562" lon="12.5098153"><ele>109.0</ele><time>2026-03-29T11:07:10.985Z</time></trkpt><trkpt lat="42.523039" lon="12.509814"><ele>107.85714285714286</ele><time>2026-03-29T11:07:29.984Z</time></trkpt><trkpt lat="42.5231035" lon="12.5098389"><ele>106.71428571428572</ele><time>2026-03-29T11:07:35.982Z</time></trkpt><trkpt lat="42.523182" lon="12.5098594"><ele>105.57142857142857</ele><time>2026-03-29T11:07:40.983Z</time></trkpt><trkpt lat="42.5232533" lon="12.5098772"><ele>104.42857142857143</ele><time>2026-03-29T11:07:44.986Z</time></trkpt><trkpt lat="42.5233117" lon="12.5099203"><ele>103.28571428571428</ele><time>2026-03-29T11:07:53.983Z</time></trkpt><trkpt lat="42.5233787" lon="12.5099498"><ele>102.14285714285714</ele><time>2026-03-29T11:08:00.983Z</time></trkpt><trkpt lat="42.5234425" lon="12.5099673"><ele>101.0</ele><time>2026-03-29T11:08:06.985Z</time></trkpt><trkpt lat="42.5235159" lon="12.5099978"><ele>101.0</ele><time>2026-03-29T11:08:11.986Z</time></trkpt><trkpt lat="42.5235777" lon="12.5100195"><ele>101.0</ele><time>2026-03-29T11:08:19.985Z</time></trkpt><trkpt lat="42.5236461" lon="12.5100422"><ele>101.0</ele><time>2026-03-29T11:08:27.985Z</time></trkpt><trkpt lat="42.5237045" lon="12.5100845"><ele>101.0</ele><time>2026-03-29T11:08:32.986Z</time></trkpt><trkpt lat="42.5237651" lon="12.5101081"><ele>101.0</ele><time>2026-03-29T11:08:37.985Z</time></trkpt><trkpt lat="42.5238325" lon="12.5101484"><ele>101.0</ele><time>2026-03-29T11:08:43.983Z</time></trkpt><trkpt lat="42.5238878" lon="12.5101897"><ele>101.0</ele><time>2026-03-29T11:08:49.983Z</time></trkpt><trkpt lat="42.5239533" lon="12.510221"><ele>102.57142857142857</ele><time>2026-03-29T11:08:55.985Z</time></trkpt><trkpt lat="42.5240222" lon="12.510246"><ele>104.14285714285714</ele><time>2026-03-29T11:09:00.985Z</time></trkpt><trkpt lat="42.5240811" lon="12.5103034"><ele>105.71428571428572</ele><time>2026-03-29T11:09:06.985Z</time></trkpt><trkpt lat="42.5241381" lon="12.5103648"><ele>107.28571428571428</ele><time>2026-03-29T11:09:13.985Z</time></trkpt><trkpt lat="42.5241905" lon="12.5104211"><ele>108.85714285714286</ele><time>2026-03-29T11:09:21.983Z</time></trkpt><trkpt lat="42.5242422" lon="12.5104717"><ele>110.42857142857143</ele><time>2026-03-29T11:09:28.985Z</time></trkpt><trkpt lat="42.5243076" lon="12.5105112"><ele>112.0</ele><time>2026-03-29T11:09:33.986Z</time></trkpt><trkpt lat="42.5243628" lon="12.5105709"><ele>110.71428571428571</ele><time>2026-03-29T11:09:39.984Z</time></trkpt><trkpt lat="42.5244239" lon="12.5106026"><ele>109.42857142857143</ele><time>2026-03-29T11:09:44.985Z</time></trkpt><trkpt lat="42.5244562" lon="12.5106798"><ele>108.14285714285714</ele><time>2026-03-29T11:09:50.986Z</time></trkpt><trkpt lat="42.524508" lon="12.5107445"><ele>106.85714285714286</ele><time>2026-03-29T11:09:57.985Z</time></trkpt><trkpt lat="42.5245537" lon="12.5108056"><ele>105.57142857142857</ele><time>2026-03-29T11:10:02.987Z</time></trkpt><trkpt lat="42.5246014" lon="12.5108637"><ele>104.28571428571428</ele><time>2026-03-29T11:10:08.985Z</time></trkpt><trkpt lat="42.5246567" lon="12.5109271"><ele>103.0</ele><time>2026-03-29T11:10:15.983Z</time></trkpt><trkpt lat="42.5247077" lon="12.5109835"><ele>102.99999999999999</ele><time>2026-03-29T11:10:22.983Z</time></trkpt><trkpt lat="42.5247541" lon="12.5110567"><ele>103.0</ele><time>2026-03-29T11:10:28.985Z</time></trkpt><trkpt lat="42.5247936" lon="12.5111404"><ele>103.0</ele><time>2026-03-29T11:10:35.985Z</time></trkpt><trkpt lat="42.5248394" lon="12.5112036"><ele>103.0</ele><time>2026-03-29T11:10:41.986Z</time></trkpt><trkpt lat="42.5248819" lon="12.5112692"><ele>103.0</ele><time>2026-03-29T11:10:47.985Z</time></trkpt><trkpt lat="42.524914" lon="12.5113481"><ele>102.99999999999999</ele><time>2026-03-29T11:10:54.984Z</time></trkpt><trkpt lat="42.5249669" lon="12.5114108"><ele>103.0</ele><time>2026-03-29T11:11:00.984Z</time></trkpt><trkpt lat="42.5250112" lon="12.5114741"><ele>102.42857142857142</ele><time>2026-03-29T11:11:06.986Z</time></trkpt><trkpt lat="42.5250539" lon="12.5115564"><ele>101.85714285714286</ele><time>2026-03-29T11:11:12.984Z</time></trkpt><trkpt lat="42.5250915" lon="12.5116356"><ele>101.28571428571428</ele><time>2026-03-29T11:11:19.984Z</time></trkpt><trkpt lat="42.5251337" lon="12.5117128"><ele>100.71428571428571</ele><time>2026-03-29T11:11:26.986Z</time></trkpt><trkpt lat="42.5251815" lon="12.5117784"><ele>100.14285714285714</ele><time>2026-03-29T11:11:32.985Z</time></trkpt><trkpt lat="42.5252059" lon="12.5118723"><ele>99.57142857142857</ele><time>2026-03-29T11:11:39.987Z</time></trkpt><trkpt lat="42.5252427" lon="12.5119444"><ele>99.0</ele><time>2026-03-29T11:11:45.987Z</time></trkpt><trkpt lat="42.5252763" lon="12.5120171"><ele>98.71428571428572</ele><time>2026-03-29T11:11:51.985Z</time></trkpt><trkpt lat="42.525296" lon="12.5121028"><ele>98.42857142857142</ele><time>2026-03-29T11:11:57.985Z</time></trkpt><trkpt lat="42.5253339" lon="12.5121742"><ele>98.14285714285714</ele><time>2026-03-29T11:12:03.984Z</time></trkpt><trkpt lat="42.5253642" lon="12.5122656"><ele>97.85714285714286</ele><time>2026-03-29T11:12:10.986Z</time></trkpt><trkpt lat="42.5253981" lon="12.5123506"><ele>97.57142857142858</ele><time>2026-03-29T11:12:17.985Z</time></trkpt><trkpt lat="42.5254187" lon="12.512442"><ele>97.28571428571428</ele><time>2026-03-29T11:12:23.986Z</time></trkpt><trkpt lat="42.5254465" lon="12.5125212"><ele>97.0</ele><time>2026-03-29T11:12:29.985Z</time></trkpt><trkpt lat="42.5254766" lon="12.5126071"><ele>97.71428571428571</ele><time>2026-03-29T11:12:36.986Z</time></trkpt><trkpt lat="42.5254918" lon="12.5126952"><ele>98.42857142857143</ele><time>2026-03-29T11:12:42.986Z</time></trkpt><trkpt lat="42.5255222" lon="12.5127796"><ele>99.14285714285714</ele><time>2026-03-29T11:12:48.985Z</time></trkpt><trkpt lat="42.5255435" lon="12.5128606"><ele>99.85714285714286</ele><time>2026-03-29T11:12:54.985Z</time></trkpt><trkpt lat="42.5255677" lon="12.5129525"><ele>100.57142857142858</ele><time>2026-03-29T11:13:00.981Z</time></trkpt><trkpt lat="42.5255913" lon="12.5130335"><ele>101.28571428571429</ele><time>2026-03-29T11:13:06.981Z</time></trkpt><trkpt lat="42.5256377" lon="12.513105"><ele>102.0</ele><time>2026-03-29T11:13:13.982Z</time></trkpt><trkpt lat="42.5256783" lon="12.5131773"><ele>102.0</ele><time>2026-03-29T11:13:20.981Z</time></trkpt><trkpt lat="42.525709" lon="12.5132573"><ele>102.0</ele><time>2026-03-29T11:13:27.981Z</time></trkpt><trkpt lat="42.5257448" lon="12.5133358"><ele>102.0</ele><time>2026-03-29T11:13:34.982Z</time></trkpt><trkpt lat="42.5257781" lon="12.5134091"><ele>102.0</ele><time>2026-03-29T11:13:41.983Z</time></trkpt><trkpt lat="42.5258163" lon="12.5134896"><ele>102.0</ele><time>2026-03-29T11:13:47.981Z</time></trkpt><trkpt lat="42.5258412" lon="12.5135748"><ele>102.0</ele><time>2026-03-29T11:13:53.981Z</time></trkpt><trkpt lat="42.525862" lon="12.5136617"><ele>102.0</ele><time>2026-03-29T11:13:59.984Z</time></trkpt><trkpt lat="42.5258926" lon="12.5137481"><ele>101.14285714285714</ele><time>2026-03-29T11:14:04.984Z</time></trkpt><trkpt lat="42.5259237" lon="12.5138259"><ele>100.28571428571429</ele><time>2026-03-29T11:14:10.986Z</time></trkpt><trkpt lat="42.5259347" lon="12.513914"><ele>99.42857142857142</ele><time>2026-03-29T11:14:29.983Z</time></trkpt><trkpt lat="42.5259747" lon="12.5139859"><ele>98.57142857142857</ele><time>2026-03-29T11:14:34.986Z</time></trkpt><trkpt lat="42.5259991" lon="12.5140748"><ele>97.71428571428571</ele><time>2026-03-29T11:14:40.984Z</time></trkpt><trkpt lat="42.5260188" lon="12.5141643"><ele>96.85714285714285</ele><time>2026-03-29T11:14:48.983Z</time></trkpt><trkpt lat="42.5260712" lon="12.5142175"><ele>96.0</ele><time>2026-03-29T11:14:55.983Z</time></trkpt><trkpt lat="42.5260914" lon="12.5143151"><ele>95.99999999999999</ele><time>2026-03-29T11:15:02.982Z</time></trkpt><trkpt lat="42.5261291" lon="12.5143902"><ele>96.0</ele><time>2026-03-29T11:15:09.985Z</time></trkpt><trkpt lat="42.5261668" lon="12.5144738"><ele>96.0</ele><time>2026-03-29T11:15:15.985Z</time></trkpt><trkpt lat="42.5262023" lon="12.5145455"><ele>96.0</ele><time>2026-03-29T11:15:21.985Z</time></trkpt><trkpt lat="42.5262288" lon="12.5146367"><ele>96.0</ele><time>2026-03-29T11:15:27.985Z</time></trkpt><trkpt lat="42.5262584" lon="12.5147148"><ele>95.99999999999999</ele><time>2026-03-29T11:15:33.983Z</time></trkpt><trkpt lat="42.5262975" lon="12.5147828"><ele>96.0</ele><time>2026-03-29T11:15:39.983Z</time></trkpt><trkpt lat="42.5263242" lon="12.5148605"><ele>95.85714285714285</ele><time>2026-03-29T11:15:45.984Z</time></trkpt><trkpt lat="42.5263643" lon="12.5149448"><ele>95.71428571428571</ele><time>2026-03-29T11:15:52.983Z</time></trkpt><trkpt lat="42.5264007" lon="12.515033"><ele>95.57142857142857</ele><time>2026-03-29T11:15:58.984Z</time></trkpt><trkpt lat="42.5264331" lon="12.5151117"><ele>95.42857142857142</ele><time>2026-03-29T11:16:05.983Z</time></trkpt><trkpt lat="42.526466" lon="12.515193"><ele>95.28571428571429</ele><time>2026-03-29T11:16:11.984Z</time></trkpt><trkpt lat="42.5265003" lon="12.5152796"><ele>95.14285714285714</ele><time>2026-03-29T11:16:18.986Z</time></trkpt><trkpt lat="42.5265304" lon="12.515356"><ele>95.0</ele><time>2026-03-29T11:16:24.985Z</time></trkpt><trkpt lat="42.5265628" lon="12.5154339"><ele>94.71428571428572</ele><time>2026-03-29T11:16:30.985Z</time></trkpt><trkpt lat="42.5266015" lon="12.5155178"><ele>94.42857142857143</ele><time>2026-03-29T11:16:38.986Z</time></trkpt><trkpt lat="42.5266349" lon="12.5156005"><ele>94.14285714285714</ele><time>2026-03-29T11:16:50.985Z</time></trkpt><trkpt lat="42.5266686" lon="12.5156778"><ele>93.85714285714286</ele><time>2026-03-29T11:16:57.985Z</time></trkpt><trkpt lat="42.5266948" lon="12.5157644"><ele>93.57142857142857</ele><time>2026-03-29T11:17:04.985Z</time></trkpt><trkpt lat="42.5267229" lon="12.5158537"><ele>93.28571428571429</ele><time>2026-03-29T11:17:12.984Z</time></trkpt><trkpt lat="42.5267637" lon="12.515932"><ele>93.0</ele><time>2026-03-29T11:17:19.982Z</time></trkpt><trkpt lat="42.5268041" lon="12.5160063"><ele>93.00000000000001</ele><time>2026-03-29T11:17:25.985Z</time></trkpt><trkpt lat="42.5268502" lon="12.5160789"><ele>93.0</ele><time>2026-03-29T11:17:32.985Z</time></trkpt><trkpt lat="42.5269128" lon="12.5161263"><ele>93.0</ele><time>2026-03-29T11:17:40.985Z</time></trkpt><trkpt lat="42.526975" lon="12.5161453"><ele>93.0</ele><time>2026-03-29T11:17:46.985Z</time></trkpt><trkpt lat="42.5270415" lon="12.5161577"><ele>93.0</ele><time>2026-03-29T11:17:54.986Z</time></trkpt><trkpt lat="42.5271069" lon="12.5161849"><ele>93.00000000000001</ele><time>2026-03-29T11:18:01.985Z</time></trkpt><trkpt lat="42.5271811" lon="12.5161569"><ele>93.0</ele><time>2026-03-29T11:18:09.984Z</time></trkpt><trkpt lat="42.5271693" lon="12.5160664"><ele>93.00000000000001</ele><time>2026-03-29T11:18:18.985Z</time></trkpt><trkpt lat="42.5271327" lon="12.5159947"><ele>93.0</ele><time>2026-03-29T11:18:23.985Z</time></trkpt><trkpt lat="42.5270973" lon="12.5159233"><ele>93.0</ele><time>2026-03-29T11:18:29.985Z</time></trkpt><trkpt lat="42.5270624" lon="12.515848"><ele>93.0</ele><time>2026-03-29T11:18:35.985Z</time></trkpt><trkpt lat="42.5270202" lon="12.5157791"><ele>93.0</ele><time>2026-03-29T11:18:41.984Z</time></trkpt><trkpt lat="42.5269773" lon="12.5157011"><ele>93.00000000000001</ele><time>2026-03-29T11:18:48.983Z</time></trkpt><trkpt lat="42.5269287" lon="12.5156339"><ele>93.0</ele><time>2026-03-29T11:18:54.985Z</time></trkpt><trkpt lat="42.5268862" lon="12.5155562"><ele>93.00000000000001</ele><time>2026-03-29T11:19:01.985Z</time></trkpt><trkpt lat="42.526847" lon="12.5154761"><ele>93.0</ele><time>2026-03-29T11:19:07.986Z</time></trkpt><trkpt lat="42.5268015" lon="12.5154002"><ele>93.0</ele><time>2026-03-29T11:19:13.985Z</time></trkpt><trkpt lat="42.5267846" lon="12.5153146"><ele>93.0</ele><time>2026-03-29T11:19:31.984Z</time></trkpt><trkpt lat="42.5267686" lon="12.515218"><ele>93.0</ele><time>2026-03-29T11:19:37.982Z</time></trkpt><trkpt lat="42.5267564" lon="12.5151225"><ele>93.00000000000001</ele><time>2026-03-29T11:19:42.983Z</time></trkpt><trkpt lat="42.526746" lon="12.5150327"><ele>93.0</ele><time>2026-03-29T11:19:48.984Z</time></trkpt><trkpt lat="42.5267673" lon="12.5149472"><ele>93.28571428571429</ele><time>2026-03-29T11:19:55.985Z</time></trkpt><trkpt lat="42.5267747" lon="12.51485"><ele>93.57142857142857</ele><time>2026-03-29T11:20:02.985Z</time></trkpt><trkpt lat="42.5267668" lon="12.5147564"><ele>93.85714285714286</ele><time>2026-03-29T11:20:07.985Z</time></trkpt><trkpt lat="42.5267526" lon="12.5146637"><ele>94.14285714285714</ele><time>2026-03-29T11:20:13.981Z</time></trkpt><trkpt lat="42.5267331" lon="12.5145819"><ele>94.42857142857143</ele><time>2026-03-29T11:20:20.985Z</time></trkpt><trkpt lat="42.526711" lon="12.5144896"><ele>94.71428571428572</ele><time>2026-03-29T11:20:28.985Z</time></trkpt><trkpt lat="42.5267589" lon="12.5144275"><ele>95.0</ele><time>2026-03-29T11:20:40.982Z</time></trkpt><trkpt lat="42.5268205" lon="12.5143884"><ele>95.0</ele><time>2026-03-29T11:20:48.983Z</time></trkpt><trkpt lat="42.5269297" lon="12.5143917"><ele>95.0</ele><time>2026-03-29T11:28:33.985Z</time></trkpt><trkpt lat="42.5269614" lon="12.5144731"><ele>95.0</ele><time>2026-03-29T11:28:43.985Z</time></trkpt><trkpt lat="42.5269883" lon="12.5145514"><ele>95.0</ele><time>2026-03-29T11:28:54.985Z</time></trkpt><trkpt lat="42.526922" lon="12.5145885"><ele>95.0</ele><time>2026-03-29T11:29:01.985Z</time></trkpt><trkpt lat="42.5268738" lon="12.5146534"><ele>95.0</ele><time>2026-03-29T11:29:08.985Z</time></trkpt><trkpt lat="42.5268345" lon="12.5147254"><ele>95.0</ele><time>2026-03-29T11:29:16.986Z</time></trkpt><trkpt lat="42.5267832" lon="12.5147927"><ele>95.0</ele><time>2026-03-29T11:29:53.985Z</time></trkpt><trkpt lat="42.5267621" lon="12.5148734"><ele>95.0</ele><time>2026-03-29T11:29:58.986Z</time></trkpt><trkpt lat="42.5267619" lon="12.5149713"><ele>95.0</ele><time>2026-03-29T11:30:04.984Z</time></trkpt><trkpt lat="42.526758" lon="12.5150682"><ele>95.0</ele><time>2026-03-29T11:30:11.986Z</time></trkpt><trkpt lat="42.5267735" lon="12.515155"><ele>95.0</ele><time>2026-03-29T11:30:18.986Z</time></trkpt><trkpt lat="42.5268064" lon="12.515234"><ele>95.0</ele><time>2026-03-29T11:30:25.983Z</time></trkpt><trkpt lat="42.5268344" lon="12.515322"><ele>95.0</ele><time>2026-03-29T11:30:32.985Z</time></trkpt><trkpt lat="42.5268527" lon="12.5154053"><ele>94.71428571428572</ele><time>2026-03-29T11:30:40.985Z</time></trkpt><trkpt lat="42.5268787" lon="12.5154937"><ele>94.42857142857143</ele><time>2026-03-29T11:30:49.986Z</time></trkpt><trkpt lat="42.5269166" lon="12.5155752"><ele>94.14285714285714</ele><time>2026-03-29T11:30:57.984Z</time></trkpt><trkpt lat="42.5269675" lon="12.5156475"><ele>93.85714285714286</ele><time>2026-03-29T11:31:05.986Z</time></trkpt><trkpt lat="42.5270137" lon="12.5157122"><ele>93.57142857142857</ele><time>2026-03-29T11:31:13.984Z</time></trkpt><trkpt lat="42.5270481" lon="12.5157917"><ele>93.28571428571429</ele><time>2026-03-29T11:31:21.987Z</time></trkpt><trkpt lat="42.5270874" lon="12.5158678"><ele>93.0</ele><time>2026-03-29T11:31:28.985Z</time></trkpt><trkpt lat="42.5271371" lon="12.5159307"><ele>93.00000000000001</ele><time>2026-03-29T11:31:36.985Z</time></trkpt><trkpt lat="42.527183" lon="12.5159928"><ele>93.0</ele><time>2026-03-29T11:31:44.985Z</time></trkpt><trkpt lat="42.5272278" lon="12.5160616"><ele>93.0</ele><time>2026-03-29T11:31:51.985Z</time></trkpt><trkpt lat="42.5271748" lon="12.516148"><ele>93.0</ele><time>2026-03-29T11:32:09.986Z</time></trkpt><trkpt lat="42.5270872" lon="12.516168"><ele>93.0</ele><time>2026-03-29T11:32:14.986Z</time></trkpt><trkpt lat="42.5270234" lon="12.5161609"><ele>93.00000000000001</ele><time>2026-03-29T11:32:18.986Z</time></trkpt><trkpt lat="42.5269608" lon="12.5161488"><ele>93.0</ele><time>2026-03-29T11:32:23.985Z</time></trkpt><trkpt lat="42.5268909" lon="12.5161095"><ele>93.00000000000001</ele><time>2026-03-29T11:32:29.984Z</time></trkpt><trkpt lat="42.5268343" lon="12.516064"><ele>93.0</ele><time>2026-03-29T11:32:35.985Z</time></trkpt><trkpt lat="42.5267943" lon="12.5159866"><ele>93.0</ele><time>2026-03-29T11:32:41.983Z</time></trkpt><trkpt lat="42.5267413" lon="12.515918"><ele>93.0</ele><time>2026-03-29T11:32:48.983Z</time></trkpt><trkpt lat="42.5267144" lon="12.5158307"><ele>93.0</ele><time>2026-03-29T11:32:55.983Z</time></trkpt><trkpt lat="42.5266783" lon="12.5157578"><ele>93.00000000000001</ele><time>2026-03-29T11:33:01.985Z</time></trkpt><trkpt lat="42.5266411" lon="12.5156798"><ele>93.0</ele><time>2026-03-29T11:33:08.985Z</time></trkpt><trkpt lat="42.526602" lon="12.5156111"><ele>93.0</ele><time>2026-03-29T11:33:14.986Z</time></trkpt><trkpt lat="42.5265602" lon="12.5155286"><ele>93.0</ele><time>2026-03-29T11:33:21.985Z</time></trkpt><trkpt lat="42.5264866" lon="12.5155284"><ele>93.0</ele><time>2026-03-29T11:33:30.985Z</time></trkpt><trkpt lat="42.5264296" lon="12.5155679"><ele>93.0</ele><time>2026-03-29T11:33:41.985Z</time></trkpt></trkseg></trk></gpx>